PORTS® Data Listing: 8519483 Bergen Point West Reach, NY

CO-OPS RAW PORTS DATA

************************      PRELIMINARY DATA      ************************** 

     THIS RAW DATA HAS NOT BEEN SUBJECT TO THE NATIONAL OCEAN SERVICE'S        
     QUALITY CONTROL OR QUALITY ASSURANCE PROCEDURES AND DOES NOT MEET         
     THE CRITERIA AND STANDARDS OF OFFICIAL NATIONAL OCEAN SERVICE             
     DATA.  IT IS RELEASED FOR LIMITED PUBLIC USE AS PRELIMINARY DATA TO       
     BE USED ONLY WITH APPROPRIATE CAUTION.                                    

************************      PRELIMINARY DATA      ************************** 


       CD   -   Calendar date
       T    -   Time
       TZ   -   Timezone
       PW   -   Predicted water level (feet above MLLW)
       OW   -   Observed water level (feet above MLLW)
       WS   -   Wind speed (knots)
       WD   -   Wind direction (degrees true)
       WG   -   Wind gust (knots)
       AT   -   Air temperature (degrees farenheit)
       WT   -   Water temperature (degrees farenheit)
       AP   -   Air pressure (millibars)
       SA   -   Salinty (PSU - Practical Salinity Units)
       SG   -   Specific gravity
       RH   -   Relative humidity
       AG   -   Air gap (feet)
       VI   -   Visibility (nautical miles)

       ** NOTE **
       A variable that has its data fields filled with "9"s, indicates that
       data was not collected for that sample period.
       **********


STATION NAME: Bergen Point West Reach (8519483)
****************************************************************************************************
    CD       T    TZ    PW     OW    WS   WD   WG    AT    WT    AP    SA    SG     RH    AG   VI
****************************************************************************************************
2019/11/11 16:30 EST    2.77   3.74 -999 -999 -999  55.2  55.8 1014.7 -9.9 -9.999 -99.9 -99.99 -9.99
2019/11/11 16:36 EST    2.91   3.89 -999 -999 -999  55.0  55.8 1014.6 -9.9 -9.999 -99.9 -99.99 -9.99
2019/11/11 16:42 EST    3.05   4.03 -999 -999 -999  54.9  55.8 1014.7 -9.9 -9.999 -99.9 -99.99 -9.99
2019/11/11 16:48 EST    3.19   4.16 -999 -999 -999  54.7  55.8 1014.6 -9.9 -9.999 -99.9 -99.99 -9.99
2019/11/11 16:54 EST    3.32   4.30 -999 -999 -999  54.5  55.8 1014.4 -9.9 -9.999 -99.9 -99.99 -9.99
2019/11/11 17:00 EST    3.45   4.43 -999 -999 -999  54.3  55.8 1014.4 -9.9 -9.999 -99.9 -99.99 -9.99
2019/11/11 17:06 EST    3.57   4.56 -999 -999 -999  54.3  55.8 1014.4 -9.9 -9.999 -99.9 -99.99 -9.99
2019/11/11 17:12 EST    3.69   4.67 -999 -999 -999  54.3  55.8 1014.3 -9.9 -9.999 -99.9 -99.99 -9.99
2019/11/11 17:18 EST    3.80   4.78 -999 -999 -999  54.3  55.8 1014.3 -9.9 -9.999 -99.9 -99.99 -9.99
2019/11/11 17:24 EST    3.92   4.87 -999 -999 -999  54.3  55.8 1014.1 -9.9 -9.999 -99.9 -99.99 -9.99
2019/11/11 17:30 EST    4.02   4.95 -999 -999 -999  54.5  55.8 1014.1 -9.9 -9.999 -99.9 -99.99 -9.99
2019/11/11 17:36 EST    4.12   5.03 -999 -999 -999  54.5  55.8 1013.9 -9.9 -9.999 -99.9 -99.99 -9.99
2019/11/11 17:42 EST    4.22   5.10 -999 -999 -999  54.3  55.8 1013.8 -9.9 -9.999 -99.9 -99.99 -9.99
2019/11/11 17:48 EST    4.31   5.17 -999 -999 -999  54.5  55.8 1013.7 -9.9 -9.999 -99.9 -99.99 -9.99
2019/11/11 17:54 EST    4.40   5.25 -999 -999 -999  54.5  55.8 1013.6 -9.9 -9.999 -99.9 -99.99 -9.99
2019/11/11 18:00 EST    4.48   5.31 -999 -999 -999  54.7  55.8 1013.5 -9.9 -9.999 -99.9 -99.99 -9.99
2019/11/11 18:06 EST    4.55   5.36 -999 -999 -999  54.7  55.8 1013.4 -9.9 -9.999 -99.9 -99.99 -9.99
2019/11/11 18:12 EST    4.62   5.40 -999 -999 -999  54.7  55.8 1013.3 -9.9 -9.999 -99.9 -99.99 -9.99
2019/11/11 18:18 EST    4.69   5.46 -999 -999 -999  54.7  55.8 1013.1 -9.9 -9.999 -99.9 -99.99 -9.99
2019/11/11 18:24 EST    4.75   5.50 -999 -999 -999  54.7  55.8 1012.9 -9.9 -9.999 -99.9 -99.99 -9.99
2019/11/11 18:30 EST    4.81   5.55 -999 -999 -999  54.9  55.8 1012.7 -9.9 -9.999 -99.9 -99.99 -9.99
2019/11/11 18:36 EST    4.86   5.58 -999 -999 -999  54.7  55.8 1012.7 -9.9 -9.999 -99.9 -99.99 -9.99
2019/11/11 18:42 EST    4.91   5.61 -999 -999 -999  54.9  55.8 1012.6 -9.9 -9.999 -99.9 -99.99 -9.99
2019/11/11 18:48 EST    4.95   5.64 -999 -999 -999  54.7  55.8 1012.5 -9.9 -9.999 -99.9 -99.99 -9.99
2019/11/11 18:54 EST    4.98   5.67 -999 -999 -999  54.9  55.8 1012.4 -9.9 -9.999 -99.9 -99.99 -9.99
2019/11/11 19:00 EST    5.01   5.70 -999 -999 -999  54.9  55.6 1012.4 -9.9 -9.999 -99.9 -99.99 -9.99
2019/11/11 19:06 EST    5.04   5.73 -999 -999 -999  54.9  55.6 1012.3 -9.9 -9.999 -99.9 -99.99 -9.99
2019/11/11 19:12 EST    5.06   5.75 -999 -999 -999  54.9  55.6 1012.2 -9.9 -9.999 -99.9 -99.99 -9.99
2019/11/11 19:18 EST    5.08   5.76 -999 -999 -999  54.7  55.6 1012.2 -9.9 -9.999 -99.9 -99.99 -9.99
2019/11/11 19:24 EST    5.08   5.77 -999 -999 -999  55.0  55.6 1012.1 -9.9 -9.999 -99.9 -99.99 -9.99
2019/11/11 19:30 EST    5.09   5.78 -999 -999 -999  55.2  55.6 1012.1 -9.9 -9.999 -99.9 -99.99 -9.99
2019/11/11 19:36 EST    5.09   5.77 -999 -999 -999  55.2  55.6 1012.1 -9.9 -9.999 -99.9 -99.99 -9.99
2019/11/11 19:42 EST    5.08   5.77 -999 -999 -999  55.0  55.6 1012.1 -9.9 -9.999 -99.9 -99.99 -9.99
2019/11/11 19:48 EST    5.06   5.76 -999 -999 -999  55.2  55.6 1012.1 -9.9 -9.999 -99.9 -99.99 -9.99
2019/11/11 19:54 EST    5.04   5.75 -999 -999 -999  55.0  55.6 1012.0 -9.9 -9.999 -99.9 -99.99 -9.99
2019/11/11 20:00 EST    5.01   5.71 -999 -999 -999  54.7  55.6 1011.8 -9.9 -9.999 -99.9 -99.99 -9.99
2019/11/11 20:06 EST    4.98   5.69 -999 -999 -999  54.7  55.6 1011.8 -9.9 -9.999 -99.9 -99.99 -9.99
2019/11/11 20:12 EST    4.94   5.65 -999 -999 -999  54.5  55.6 1011.7 -9.9 -9.999 -99.9 -99.99 -9.99
2019/11/11 20:18 EST    4.89   5.60 -999 -999 -999  54.3  55.6 1011.7 -9.9 -9.999 -99.9 -99.99 -9.99
2019/11/11 20:24 EST    4.84   5.54 -999 -999 -999  54.5  55.6 1011.7 -9.9 -9.999 -99.9 -99.99 -9.99
2019/11/11 20:30 EST    4.78   5.47 -999 -999 -999  54.5  55.6 1011.7 -9.9 -9.999 -99.9 -99.99 -9.99
2019/11/11 20:36 EST    4.71   5.40 -999 -999 -999  54.5  55.4 1011.7 -9.9 -9.999 -99.9 -99.99 -9.99
2019/11/11 20:42 EST    4.64   5.32 -999 -999 -999  54.7  55.4 1011.8 -9.9 -9.999 -99.9 -99.99 -9.99
2019/11/11 20:48 EST    4.56   5.22 -999 -999 -999  54.5  55.6 1011.8 -9.9 -9.999 -99.9 -99.99 -9.99
2019/11/11 20:54 EST    4.48   5.14 -999 -999 -999  54.5  55.6 1011.7 -9.9 -9.999 -99.9 -99.99 -9.99
2019/11/11 21:00 EST    4.39   5.04 -999 -999 -999  54.3  55.6 1011.7 -9.9 -9.999 -99.9 -99.99 -9.99
2019/11/11 21:06 EST    4.29   4.93 -999 -999 -999  54.1  55.6 1011.7 -9.9 -9.999 -99.9 -99.99 -9.99
2019/11/11 21:12 EST    4.19   4.80 -999 -999 -999  54.0  55.6 1011.7 -9.9 -9.999 -99.9 -99.99 -9.99
2019/11/11 21:18 EST    4.08   4.69 -999 -999 -999  53.8  55.6 1011.8 -9.9 -9.999 -99.9 -99.99 -9.99
2019/11/11 21:24 EST    3.97   4.56 -999 -999 -999  53.6  55.6 1011.8 -9.9 -9.999 -99.9 -99.99 -9.99
2019/11/11 21:30 EST    3.86   4.47 -999 -999 -999  53.4  55.6 1011.8 -9.9 -9.999 -99.9 -99.99 -9.99
2019/11/11 21:36 EST    3.74   4.34 -999 -999 -999  53.2  55.6 1011.7 -9.9 -9.999 -99.9 -99.99 -9.99
2019/11/11 21:42 EST    3.62   4.23 -999 -999 -999  53.1  55.6 1011.7 -9.9 -9.999 -99.9 -99.99 -9.99
2019/11/11 21:48 EST    3.50   4.11 -999 -999 -999  52.9  55.6 1011.6 -9.9 -9.999 -99.9 -99.99 -9.99
2019/11/11 21:54 EST    3.37   3.99 -999 -999 -999  52.9  55.6 1011.6 -9.9 -9.999 -99.9 -99.99 -9.99
2019/11/11 22:00 EST    3.24   3.88 -999 -999 -999  52.7  55.6 1011.3 -9.9 -9.999 -99.9 -99.99 -9.99
2019/11/11 22:06 EST    3.11   3.74 -999 -999 -999  52.5  55.6 1011.1 -9.9 -9.999 -99.9 -99.99 -9.99
2019/11/11 22:12 EST    2.98   3.62 -999 -999 -999  52.5  55.6 1011.0 -9.9 -9.999 -99.9 -99.99 -9.99
2019/11/11 22:18 EST    2.85   3.50 -999 -999 -999  52.5  55.6 1011.0 -9.9 -9.999 -99.9 -99.99 -9.99
2019/11/11 22:24 EST    2.72   3.38 -999 -999 -999  52.5  55.6 1010.8 -9.9 -9.999 -99.9 -99.99 -9.99
2019/11/11 22:30 EST    2.60   3.23 -999 -999 -999  52.5  55.6 1010.8 -9.9 -9.999 -99.9 -99.99 -9.99
2019/11/11 22:36 EST    2.47   3.10 -999 -999 -999  52.3  55.6 1010.6 -9.9 -9.999 -99.9 -99.99 -9.99
2019/11/11 22:42 EST    2.34   2.98 -999 -999 -999  52.3  55.6 1010.3 -9.9 -9.999 -99.9 -99.99 -9.99
2019/11/11 22:48 EST    2.22   2.84 -999 -999 -999  52.5  55.4 1010.2 -9.9 -9.999 -99.9 -99.99 -9.99
2019/11/11 22:54 EST    2.09   2.74 -999 -999 -999  52.5  55.4 1010.0 -9.9 -9.999 -99.9 -99.99 -9.99
2019/11/11 23:00 EST    1.97   2.58 -999 -999 -999  52.5  55.4 1010.0 -9.9 -9.999 -99.9 -99.99 -9.99
2019/11/11 23:06 EST    1.85   2.46 -999 -999 -999  52.3  55.4 1009.9 -9.9 -9.999 -99.9 -99.99 -9.99
2019/11/11 23:12 EST    1.74   2.34 -999 -999 -999  52.5  55.4 1009.8 -9.9 -9.999 -99.9 -99.99 -9.99
2019/11/11 23:18 EST    1.62   2.23 -999 -999 -999  52.7  55.4 1009.7 -9.9 -9.999 -99.9 -99.99 -9.99
2019/11/11 23:24 EST    1.51   2.11 -999 -999 -999  53.1  55.4 1009.6 -9.9 -9.999 -99.9 -99.99 -9.99
2019/11/11 23:30 EST    1.41   2.01 -999 -999 -999  53.2  55.4 1009.5 -9.9 -9.999 -99.9 -99.99 -9.99
2019/11/11 23:36 EST    1.30   1.91 -999 -999 -999  53.8  55.4 1009.4 -9.9 -9.999 -99.9 -99.99 -9.99
2019/11/11 23:42 EST    1.20   1.81 -999 -999 -999  54.1  55.4 1009.2 -9.9 -9.999 -99.9 -99.99 -9.99
2019/11/11 23:48 EST    1.11   1.71 -999 -999 -999  54.3  55.4 1009.2 -9.9 -9.999 -99.9 -99.99 -9.99
2019/11/11 23:54 EST    1.01   1.63 -999 -999 -999  54.1  55.4 1009.3 -9.9 -9.999 -99.9 -99.99 -9.99
2019/11/12 00:00 EST    0.92   1.53 -999 -999 -999  54.3  55.4 1009.1 -9.9 -9.999 -99.9 -99.99 -9.99
2019/11/12 00:06 EST    0.83   1.44 -999 -999 -999  54.3  55.4 1008.9 -9.9 -9.999 -99.9 -99.99 -9.99
2019/11/12 00:12 EST    0.75   1.39 -999 -999 -999  54.3  55.4 1008.7 -9.9 -9.999 -99.9 -99.99 -9.99
2019/11/12 00:18 EST    0.67   1.33 -999 -999 -999  54.9  55.4 1008.6 -9.9 -9.999 -99.9 -99.99 -9.99
2019/11/12 00:24 EST    0.60   1.27 -999 -999 -999  54.9  55.4 1008.6 -9.9 -9.999 -99.9 -99.99 -9.99
2019/11/12 00:30 EST    0.52   1.21 -999 -999 -999  54.9  55.4 1008.4 -9.9 -9.999 -99.9 -99.99 -9.99
2019/11/12 00:36 EST    0.46   1.17 -999 -999 -999  54.7  55.4 1008.1 -9.9 -9.999 -99.9 -99.99 -9.99
2019/11/12 00:42 EST    0.39   1.13 -999 -999 -999  55.0  55.4 1008.1 -9.9 -9.999 -99.9 -99.99 -9.99
2019/11/12 00:48 EST    0.33   1.07 -999 -999 -999  54.9  55.4 1008.1 -9.9 -9.999 -99.9 -99.99 -9.99
2019/11/12 00:54 EST    0.28   1.03 -999 -999 -999  54.9  55.4 1007.8 -9.9 -9.999 -99.9 -99.99 -9.99
2019/11/12 01:00 EST    0.23   0.99 -999 -999 -999  54.9  55.4 1007.8 -9.9 -9.999 -99.9 -99.99 -9.99
2019/11/12 01:06 EST    0.18   0.97 -999 -999 -999  54.9  55.4 1007.7 -9.9 -9.999 -99.9 -99.99 -9.99
2019/11/12 01:12 EST    0.14   0.93 -999 -999 -999  54.9  55.4 1007.5 -9.9 -9.999 -99.9 -99.99 -9.99
2019/11/12 01:18 EST    0.11   0.92 -999 -999 -999  54.9  55.4 1007.3 -9.9 -9.999 -99.9 -99.99 -9.99
2019/11/12 01:24 EST    0.08   0.90 -999 -999 -999  54.9  55.4 1007.2 -9.9 -9.999 -99.9 -99.99 -9.99
2019/11/12 01:30 EST    0.06   0.89 -999 -999 -999  54.9  55.4 1007.2 -9.9 -9.999 -99.9 -99.99 -9.99
2019/11/12 01:36 EST    0.04   0.88 -999 -999 -999  54.9  55.2 1007.3 -9.9 -9.999 -99.9 -99.99 -9.99
2019/11/12 01:42 EST    0.04   0.87 -999 -999 -999  54.9  55.2 1007.2 -9.9 -9.999 -99.9 -99.99 -9.99
2019/11/12 01:48 EST    0.03   0.87 -999 -999 -999  54.9  55.2 1007.1 -9.9 -9.999 -99.9 -99.99 -9.99
2019/11/12 01:54 EST    0.04   0.88 -999 -999 -999  54.7  55.2 1007.0 -9.9 -9.999 -99.9 -99.99 -9.99
2019/11/12 02:00 EST    0.06   0.89 -999 -999 -999  54.9  55.2 1006.9 -9.9 -9.999 -99.9 -99.99 -9.99
2019/11/12 02:06 EST    0.08   0.91 -999 -999 -999  54.9  55.2 1006.9 -9.9 -9.999 -99.9 -99.99 -9.99
2019/11/12 02:12 EST    0.11   0.93 -999 -999 -999  54.9  55.2 1007.0 -9.9 -9.999 -99.9 -99.99 -9.99
2019/11/12 02:18 EST    0.15   0.95 -999 -999 -999  54.9  55.2 1006.9 -9.9 -9.999 -99.9 -99.99 -9.99
2019/11/12 02:24 EST    0.20   0.99 -999 -999 -999  54.7  55.2 1006.7 -9.9 -9.999 -99.9 -99.99 -9.99
2019/11/12 02:30 EST    0.25   1.04 -999 -999 -999  54.7  55.2 1006.8 -9.9 -9.999 -99.9 -99.99 -9.99
2019/11/12 02:36 EST    0.32   1.09 -999 -999 -999  54.7  55.2 1006.7 -9.9 -9.999 -99.9 -99.99 -9.99
2019/11/12 02:42 EST    0.39   1.16 -999 -999 -999  54.5  55.2 1006.5 -9.9 -9.999 -99.9 -99.99 -9.99
2019/11/12 02:48 EST    0.48   1.23 -999 -999 -999  54.5  55.2 1006.3 -9.9 -9.999 -99.9 -99.99 -9.99
2019/11/12 02:54 EST    0.57   1.31 -999 -999 -999  54.7  55.2 1006.2 -9.9 -9.999 -99.9 -99.99 -9.99
2019/11/12 03:00 EST    0.67   1.39 -999 -999 -999  54.9  55.2 1006.4 -9.9 -9.999 -99.9 -99.99 -9.99
2019/11/12 03:06 EST    0.78   1.50 -999 -999 -999  54.9  55.2 1006.2 -9.9 -9.999 -99.9 -99.99 -9.99
2019/11/12 03:12 EST    0.90   1.61 -999 -999 -999  55.2  55.2 1006.1 -9.9 -9.999 -99.9 -99.99 -9.99
2019/11/12 03:18 EST    1.02   1.75 -999 -999 -999  55.2  55.4 1006.0 -9.9 -9.999 -99.9 -99.99 -9.99
2019/11/12 03:24 EST    1.15   1.89 -999 -999 -999  55.0  55.4 1006.1 -9.9 -9.999 -99.9 -99.99 -9.99
2019/11/12 03:30 EST    1.29   2.04 -999 -999 -999  55.2  55.4 1006.3 -9.9 -9.999 -99.9 -99.99 -9.99
2019/11/12 03:36 EST    1.44   2.21 -999 -999 -999  55.4  55.4 1005.7 -9.9 -9.999 -99.9 -99.99 -9.99
2019/11/12 03:42 EST    1.59   2.39 -999 -999 -999  55.2  55.4 1005.1 -9.9 -9.999 -99.9 -99.99 -9.99
2019/11/12 03:48 EST    1.74   2.58 -999 -999 -999  55.2  55.4 1004.2 -9.9 -9.999 -99.9 -99.99 -9.99
2019/11/12 03:54 EST    1.90   2.77 -999 -999 -999  54.7  55.4 1004.4 -9.9 -9.999 -99.9 -99.99 -9.99
2019/11/12 04:00 EST    2.06   2.96 -999 -999 -999  54.9  55.4 1005.0 -9.9 -9.999 -99.9 -99.99 -9.99
2019/11/12 04:06 EST    2.22   3.15 -999 -999 -999  54.9  55.4 1005.4 -9.9 -9.999 -99.9 -99.99 -9.99
2019/11/12 04:12 EST    2.39   3.35 -999 -999 -999  55.0  55.4 1006.5 -9.9 -9.999 -99.9 -99.99 -9.99
2019/11/12 04:18 EST    2.56   3.54 -999 -999 -999  55.4  55.4 1006.2 -9.9 -9.999 -99.9 -99.99 -9.99
2019/11/12 04:24 EST    2.73   3.74 -999 -999 -999  55.8  55.4 1006.1 -9.9 -9.999 -99.9 -99.99 -9.99
2019/11/12 04:30 EST    2.90   3.93 -999 -999 -999  55.9  55.4 1006.1 -9.9 -9.999 -99.9 -99.99 -9.99
2019/11/12 04:36 EST    3.06   4.14 -999 -999 -999  55.9  55.6 1005.9 -9.9 -9.999 -99.9 -99.99 -9.99
2019/11/12 04:42 EST    3.23   4.33 -999 -999 -999  56.1  55.6 1006.0 -9.9 -9.999 -99.9 -99.99 -9.99
2019/11/12 04:48 EST    3.39   4.51 -999 -999 -999  56.1  55.6 1005.9 -9.9 -9.999 -99.9 -99.99 -9.99
2019/11/12 04:54 EST    3.55   4.69 -999 -999 -999  56.1  55.6 1005.9 -9.9 -9.999 -99.9 -99.99 -9.99
2019/11/12 05:00 EST    3.71   4.83 -999 -999 -999  55.8  55.6 1005.9 -9.9 -9.999 -99.9 -99.99 -9.99
2019/11/12 05:06 EST    3.86   5.00 -999 -999 -999  55.9  55.6 1005.9 -9.9 -9.999 -99.9 -99.99 -9.99
2019/11/12 05:12 EST    4.01   5.14 -999 -999 -999  55.8  55.6 1005.8 -9.9 -9.999 -99.9 -99.99 -9.99
2019/11/12 05:18 EST    4.15   5.26 -999 -999 -999  55.8  55.6 1005.8 -9.9 -9.999 -99.9 -99.99 -9.99
2019/11/12 05:24 EST    4.29   5.37 -999 -999 -999  55.8  55.6 1005.8 -9.9 -9.999 -99.9 -99.99 -9.99
2019/11/12 05:30 EST    4.42   5.49 -999 -999 -999  55.8  55.6 1005.8 -9.9 -9.999 -99.9 -99.99 -9.99
2019/11/12 05:36 EST    4.54   5.60 -999 -999 -999  55.8  55.6 1005.6 -9.9 -9.999 -99.9 -99.99 -9.99
2019/11/12 05:42 EST    4.66   5.68 -999 -999 -999  55.8  55.6 1005.8 -9.9 -9.999 -99.9 -99.99 -9.99
2019/11/12 05:48 EST    4.78   5.75 -999 -999 -999  55.6  55.8 1005.8 -9.9 -9.999 -99.9 -99.99 -9.99
2019/11/12 05:54 EST    4.88   5.81 -999 -999 -999  55.4  55.8 1006.0 -9.9 -9.999 -99.9 -99.99 -9.99
2019/11/12 06:00 EST    4.98   5.85 -999 -999 -999  55.4  55.8 1005.7 -9.9 -9.999 -99.9 -99.99 -9.99
2019/11/12 06:06 EST    5.08   5.90 -999 -999 -999  55.4  55.8 1005.4 -9.9 -9.999 -99.9 -99.99 -9.99
2019/11/12 06:12 EST    5.17   5.93 -999 -999 -999  55.6  55.8 1006.0 -9.9 -9.999 -99.9 -99.99 -9.99
2019/11/12 06:18 EST    5.25   5.94 -999 -999 -999  55.4  55.8 1005.9 -9.9 -9.999 -99.9 -99.99 -9.99
2019/11/12 06:24 EST    5.32   5.97 -999 -999 -999  55.8  55.8 1006.0 -9.9 -9.999 -99.9 -99.99 -9.99
2019/11/12 06:30 EST    5.39   5.98 -999 -999 -999  55.8  55.8 1006.1 -9.9 -9.999 -99.9 -99.99 -9.99
2019/11/12 06:36 EST    5.46   5.98 -999 -999 -999  55.9  55.8 1006.2 -9.9 -9.999 -99.9 -99.99 -9.99
2019/11/12 06:42 EST    5.51   5.98 -999 -999 -999  55.6  55.8 1006.3 -9.9 -9.999 -99.9 -99.99 -9.99
2019/11/12 06:48 EST    5.56   5.97 -999 -999 -999  55.9  55.8 1006.4 -9.9 -9.999 -99.9 -99.99 -9.99
2019/11/12 06:54 EST    5.61   5.96 -999 -999 -999  55.6  55.8 1006.3 -9.9 -9.999 -99.9 -99.99 -9.99
2019/11/12 07:00 EST    5.65   5.94 -999 -999 -999  54.9  55.8 1006.5 -9.9 -9.999 -99.9 -99.99 -9.99
2019/11/12 07:06 EST    5.68   5.91 -999 -999 -999  54.3  55.8 1006.6 -9.9 -9.999 -99.9 -99.99 -9.99
2019/11/12 07:12 EST    5.71   5.91 -999 -999 -999  54.0  55.8 1006.9 -9.9 -9.999 -99.9 -99.99 -9.99
2019/11/12 07:18 EST    5.73   5.89 -999 -999 -999  53.4  55.6 1007.1 -9.9 -9.999 -99.9 -99.99 -9.99
2019/11/12 07:24 EST    5.75   5.87 -999 -999 -999  53.1  55.6 1007.1 -9.9 -9.999 -99.9 -99.99 -9.99
2019/11/12 07:30 EST    5.76   5.84 -999 -999 -999  52.9  55.6 1007.2 -9.9 -9.999 -99.9 -99.99 -9.99
2019/11/12 07:36 EST    5.76   5.82 -999 -999 -999  52.5  55.6 1007.1 -9.9 -9.999 -99.9 -99.99 -9.99
2019/11/12 07:42 EST    5.76   5.77 -999 -999 -999  52.3  55.4 1007.2 -9.9 -9.999 -99.9 -99.99 -9.99
2019/11/12 07:48 EST    5.76   5.75 -999 -999 -999  52.2  55.4 1007.3 -9.9 -9.999 -99.9 -99.99 -9.99
2019/11/12 07:54 EST    5.74   5.71 -999 -999 -999  52.2  55.6 1007.5 -9.9 -9.999 -99.9 -99.99 -9.99
2019/11/12 08:00 EST    5.73   5.65 -999 -999 -999  52.0  55.6 1007.7 -9.9 -9.999 -99.9 -99.99 -9.99
2019/11/12 08:06 EST    5.70   5.62 -999 -999 -999  47.8  55.6 1008.3 -9.9 -9.999 -99.9 -99.99 -9.99
2019/11/12 08:12 EST    5.67   5.55 -999 -999 -999  46.4  55.6 1008.6 -9.9 -9.999 -99.9 -99.99 -9.99
2019/11/12 08:18 EST    5.64   5.50 -999 -999 -999  46.4  55.4 1008.8 -9.9 -9.999 -99.9 -99.99 -9.99
2019/11/12 08:24 EST    5.60   5.45 -999 -999 -999  45.7  55.4 1008.7 -9.9 -9.999 -99.9 -99.99 -9.99
2019/11/12 08:30 EST    5.55   5.39 -999 -999 -999  44.8  55.4 1008.7 -9.9 -9.999 -99.9 -99.99 -9.99
2019/11/12 08:36 EST    5.50   5.34 -999 -999 -999  44.4  55.4 1008.6 -9.9 -9.999 -99.9 -99.99 -9.99
2019/11/12 08:42 EST    5.44   5.29 -999 -999 -999  43.5  55.4 1008.6 -9.9 -9.999 -99.9 -99.99 -9.99
2019/11/12 08:48 EST    5.37   5.20 -999 -999 -999  43.2  55.4 1008.9 -9.9 -9.999 -99.9 -99.99 -9.99
2019/11/12 08:54 EST    5.30   5.12 -999 -999 -999  42.4  55.4 1009.0 -9.9 -9.999 -99.9 -99.99 -9.99
2019/11/12 09:00 EST    5.23   5.01 -999 -999 -999  42.1  55.4 1009.2 -9.9 -9.999 -99.9 -99.99 -9.99
2019/11/12 09:06 EST    5.14   4.92 -999 -999 -999  42.3  55.4 1009.4 -9.9 -9.999 -99.9 -99.99 -9.99
2019/11/12 09:12 EST    5.06   4.82 -999 -999 -999  41.2  55.4 1009.7 -9.9 -9.999 -99.9 -99.99 -9.99
2019/11/12 09:18 EST    4.96   4.72 -999 -999 -999  40.8  55.4 1009.5 -9.9 -9.999 -99.9 -99.99 -9.99
2019/11/12 09:24 EST    4.87   4.64 -999 -999 -999  41.0  55.4 1009.5 -9.9 -9.999 -99.9 -99.99 -9.99
2019/11/12 09:30 EST    4.76   4.56 -999 -999 -999  40.8  55.4 1009.6 -9.9 -9.999 -99.9 -99.99 -9.99
2019/11/12 09:36 EST    4.66   4.47 -999 -999 -999  40.6  55.4 1009.7 -9.9 -9.999 -99.9 -99.99 -9.99
2019/11/12 09:42 EST    4.54   4.37 -999 -999 -999  40.5  55.4 1009.7 -9.9 -9.999 -99.9 -99.99 -9.99
2019/11/12 09:48 EST    4.43   4.27 -999 -999 -999  40.5  55.4 1010.0 -9.9 -9.999 -99.9 -99.99 -9.99
2019/11/12 09:54 EST    4.31   4.13 -999 -999 -999  39.9  55.4 1010.3 -9.9 -9.999 -99.9 -99.99 -9.99
2019/11/12 10:00 EST    4.19   4.02 -999 -999 -999  39.7  55.4 1010.2 -9.9 -9.999 -99.9 -99.99 -9.99
2019/11/12 10:06 EST    4.06   3.90 -999 -999 -999  39.6  55.4 1010.5 -9.9 -9.999 -99.9 -99.99 -9.99
2019/11/12 10:12 EST    3.94   3.80 -999 -999 -999  39.4  55.2 1010.7 -9.9 -9.999 -99.9 -99.99 -9.99
2019/11/12 10:18 EST    3.81   3.68 -999 -999 -999  39.0  55.2 1011.0 -9.9 -9.999 -99.9 -99.99 -9.99
2019/11/12 10:24 EST    3.68   3.57 -999 -999 -999  39.0  55.2 1011.0 -9.9 -9.999 -99.9 -99.99 -9.99
2019/11/12 10:30 EST    3.55   3.44 -999 -999 -999  39.2  55.2 1011.4 -9.9 -9.999 -99.9 -99.99 -9.99
2019/11/12 10:36 EST    3.41   3.29 -999 -999 -999  39.2  55.2 1011.7 -9.9 -9.999 -99.9 -99.99 -9.99
2019/11/12 10:42 EST    3.28   3.16 -999 -999 -999  39.4  55.2 1011.8 -9.9 -9.999 -99.9 -99.99 -9.99
2019/11/12 10:48 EST    3.15   3.02 -999 -999 -999  39.2  55.2 1012.0 -9.9 -9.999 -99.9 -99.99 -9.99
2019/11/12 10:54 EST    3.02   2.88 -999 -999 -999  39.0  55.2 1012.2 -9.9 -9.999 -99.9 -99.99 -9.99
2019/11/12 11:00 EST    2.89   2.75 -999 -999 -999  39.2  55.0 1012.3 -9.9 -9.999 -99.9 -99.99 -9.99
2019/11/12 11:06 EST    2.76   2.62 -999 -999 -999  38.8  55.0 1012.4 -9.9 -9.999 -99.9 -99.99 -9.99
2019/11/12 11:12 EST    2.63   2.43 -999 -999 -999  38.7  55.0 1012.3 -9.9 -9.999 -99.9 -99.99 -9.99
2019/11/12 11:18 EST    2.50   2.33 -999 -999 -999  37.9  55.0 1012.4 -9.9 -9.999 -99.9 -99.99 -9.99
2019/11/12 11:24 EST    2.38   2.19 -999 -999 -999  37.6  55.0 1012.4 -9.9 -9.999 -99.9 -99.99 -9.99
2019/11/12 11:30 EST    2.25   2.06 -999 -999 -999  37.9  55.0 1012.4 -9.9 -9.999 -99.9 -99.99 -9.99
2019/11/12 11:36 EST    2.13   1.94 -999 -999 -999  38.1  55.0 1012.6 -9.9 -9.999 -99.9 -99.99 -9.99
2019/11/12 11:42 EST    2.01   1.83 -999 -999 -999  37.8  55.0 1012.4 -9.9 -9.999 -99.9 -99.99 -9.99
2019/11/12 11:48 EST    1.90   1.70 -999 -999 -999  37.4  54.9 1012.6 -9.9 -9.999 -99.9 -99.99 -9.99
2019/11/12 11:54 EST    1.78   1.57 -999 -999 -999  37.0  54.9 1012.9 -9.9 -9.999 -99.9 -99.99 -9.99
2019/11/12 12:00 EST    1.67   1.45 -999 -999 -999  36.9  54.9 1012.9 -9.9 -9.999 -99.9 -99.99 -9.99
2019/11/12 12:06 EST    1.56   1.35 -999 -999 -999  35.8  54.9 1012.9 -9.9 -9.999 -99.9 -99.99 -9.99
2019/11/12 12:12 EST    1.46   1.25 -999 -999 -999  36.0  54.9 1013.0 -9.9 -9.999 -99.9 -99.99 -9.99
2019/11/12 12:18 EST    1.36   1.16 -999 -999 -999  36.0  54.9 1013.0 -9.9 -9.999 -99.9 -99.99 -9.99
2019/11/12 12:24 EST    1.25   1.06 -999 -999 -999  36.0  54.9 1013.1 -9.9 -9.999 -99.9 -99.99 -9.99
2019/11/12 12:30 EST    1.16   0.97 -999 -999 -999  36.0  54.7 1013.2 -9.9 -9.999 -99.9 -99.99 -9.99
2019/11/12 12:36 EST    1.06   0.82 -999 -999 -999  36.1  54.7 1013.1 -9.9 -9.999 -99.9 -99.99 -9.99
2019/11/12 12:42 EST    0.97   0.74 -999 -999 -999  36.1  54.7 1013.3 -9.9 -9.999 -99.9 -99.99 -9.99
2019/11/12 12:48 EST    0.88   0.66 -999 -999 -999  36.3  54.7 1013.3 -9.9 -9.999 -99.9 -99.99 -9.99
2019/11/12 12:54 EST    0.79   0.55 -999 -999 -999  36.0  54.7 1013.3 -9.9 -9.999 -99.9 -99.99 -9.99
2019/11/12 13:00 EST    0.71   0.44 -999 -999 -999  35.8  54.5 1013.5 -9.9 -9.999 -99.9 -99.99 -9.99
2019/11/12 13:06 EST    0.63   0.36 -999 -999 -999  35.6  54.5 1013.4 -9.9 -9.999 -99.9 -99.99 -9.99
2019/11/12 13:12 EST    0.55   0.30 -999 -999 -999  35.2  54.5 1013.4 -9.9 -9.999 -99.9 -99.99 -9.99
2019/11/12 13:18 EST    0.48   0.21 -999 -999 -999  35.4  54.5 1013.5 -9.9 -9.999 -99.9 -99.99 -9.99
2019/11/12 13:24 EST    0.41   0.14 -999 -999 -999  35.8  54.5 1013.7 -9.9 -9.999 -99.9 -99.99 -9.99
2019/11/12 13:30 EST    0.34   0.02 -999 -999 -999  35.4  54.5 1013.7 -9.9 -9.999 -99.9 -99.99 -9.99
2019/11/12 13:36 EST    0.28  -0.08 -999 -999 -999  34.2  54.3 1013.8 -9.9 -9.999 -99.9 -99.99 -9.99
2019/11/12 13:42 EST    0.23  -0.13 -999 -999 -999  34.2  54.3 1013.8 -9.9 -9.999 -99.9 -99.99 -9.99
2019/11/12 13:48 EST    0.18  -0.23 -999 -999 -999  34.5  54.3 1013.9 -9.9 -9.999 -99.9 -99.99 -9.99
2019/11/12 13:54 EST    0.13  -0.29 -999 -999 -999  34.5  54.3 1013.9 -9.9 -9.999 -99.9 -99.99 -9.99
2019/11/12 14:00 EST    0.10  -0.36 -999 -999 -999  34.5  54.1 1014.0 -9.9 -9.999 -99.9 -99.99 -9.99
2019/11/12 14:06 EST    0.06  -0.42 -999 -999 -999  34.5  54.1 1014.1 -9.9 -9.999 -99.9 -99.99 -9.99
2019/11/12 14:12 EST    0.04  -0.43 -999 -999 -999  34.5  54.1 1014.1 -9.9 -9.999 -99.9 -99.99 -9.99
2019/11/12 14:18 EST    0.02  -0.48 -999 -999 -999  34.0  54.1 1014.2 -9.9 -9.999 -99.9 -99.99 -9.99
2019/11/12 14:24 EST    0.01  -0.53 -999 -999 -999  34.3  54.1 1014.3 -9.9 -9.999 -99.9 -99.99 -9.99
2019/11/12 14:30 EST    0.01  -0.57 -999 -999 -999  34.2  54.3 1014.3 -9.9 -9.999 -99.9 -99.99 -9.99
2019/11/12 14:36 EST    0.01  -0.59 -999 -999 -999  34.2  54.1 1014.3 -9.9 -9.999 -99.9 -99.99 -9.99
2019/11/12 14:42 EST    0.03  -0.62 -999 -999 -999  34.3  54.1 1014.4 -9.9 -9.999 -99.9 -99.99 -9.99
2019/11/12 14:48 EST    0.05  -0.61 -999 -999 -999  34.7  54.1 1014.6 -9.9 -9.999 -99.9 -99.99 -9.99
2019/11/12 14:54 EST    0.08  -0.61 -999 -999 -999  34.3  54.1 1014.6 -9.9 -9.999 -99.9 -99.99 -9.99
2019/11/12 15:00 EST    0.12  -0.60 -999 -999 -999  34.7  54.1 1014.7 -9.9 -9.999 -99.9 -99.99 -9.99
2019/11/12 15:06 EST    0.17  -0.54 -999 -999 -999  34.7  54.1 1014.7 -9.9 -9.999 -99.9 -99.99 -9.99
2019/11/12 15:12 EST    0.23  -0.50 -999 -999 -999  34.2  54.1 1014.8 -9.9 -9.999 -99.9 -99.99 -9.99
2019/11/12 15:18 EST    0.30  -0.43 -999 -999 -999  34.5  54.0 1015.0 -9.9 -9.999 -99.9 -99.99 -9.99
2019/11/12 15:24 EST    0.38  -0.36 -999 -999 -999  34.2  54.0 1015.1 -9.9 -9.999 -99.9 -99.99 -9.99
2019/11/12 15:30 EST    0.46  -0.27 -999 -999 -999  34.3  54.0 1015.1 -9.9 -9.999 -99.9 -99.99 -9.99
2019/11/12 15:36 EST    0.56  -0.17 -999 -999 -999  34.3  54.1 1015.1 -9.9 -9.999 -99.9 -99.99 -9.99
2019/11/12 15:42 EST    0.66  -0.08 -999 -999 -999  34.9  54.1 1015.1 -9.9 -9.999 -99.9 -99.99 -9.99
2019/11/12 15:48 EST    0.77   0.02 -999 -999 -999  35.2  54.0 1015.2 -9.9 -9.999 -99.9 -99.99 -9.99
2019/11/12 15:54 EST    0.89   0.12 -999 -999 -999  35.2  54.0 1015.3 -9.9 -9.999 -99.9 -99.99 -9.99
2019/11/12 16:00 EST    1.01   0.27 -999 -999 -999  34.9  54.0 1015.2 -9.9 -9.999 -99.9 -99.99 -9.99
2019/11/12 16:06 EST    1.14   0.39 -999 -999 -999  34.9  53.8 1015.3 -9.9 -9.999 -99.9 -99.99 -9.99
2019/11/12 16:12 EST    1.27   0.56 -999 -999 -999  34.5  53.6 1015.6 -9.9 -9.999 -99.9 -99.99 -9.99
2019/11/12 16:18 EST    1.41   0.71 -999 -999 -999  34.9  53.4 1015.8 -9.9 -9.999 -99.9 -99.99 -9.99
2019/11/12 16:24 EST    1.56   0.86 -999 -999 -999  34.7  53.4 1015.7 -9.9 -9.999 -99.9 -99.99 -9.99
2019/11/12 16:30 EST    1.71   1.05 -999 -999 -999  35.6  53.4 1016.0 -9.9 -9.999 -99.9 -99.99 -9.99
2019/11/12 16:36 EST    1.86   1.23 -999 -999 -999  34.5  53.4 1016.2 -9.9 -9.999 -99.9 -99.99 -9.99
2019/11/12 16:42 EST    2.01   1.42 -999 -999 -999  34.3  53.4 1016.4 -9.9 -9.999 -99.9 -99.99 -9.99
2019/11/12 16:48 EST    2.16   1.59 -999 -999 -999  34.3  53.2 1016.6 -9.9 -9.999 -99.9 -99.99 -9.99
2019/11/12 16:54 EST    2.32   1.75 -999 -999 -999  34.7  53.2 1016.7 -9.9 -9.999 -99.9 -99.99 -9.99
2019/11/12 17:00 EST    2.47   1.93 -999 -999 -999  34.5  53.2 1016.8 -9.9 -9.999 -99.9 -99.99 -9.99
2019/11/12 17:06 EST    2.62   2.13 -999 -999 -999  34.5  53.2 1016.9 -9.9 -9.999 -99.9 -99.99 -9.99
2019/11/12 17:12 EST    2.77   2.33 -999 -999 -999  34.3  53.2 1017.0 -9.9 -9.999 -99.9 -99.99 -9.99
2019/11/12 17:18 EST    2.92   2.54 -999 -999 -999  34.3  53.4 1017.2 -9.9 -9.999 -99.9 -99.99 -9.99
2019/11/12 17:24 EST    3.07   2.76 -999 -999 -999  34.3  53.4 1017.2 -9.9 -9.999 -99.9 -99.99 -9.99
2019/11/12 17:30 EST    3.21   2.92 -999 -999 -999  33.6  53.4 1017.2 -9.9 -9.999 -99.9 -99.99 -9.99
2019/11/12 17:36 EST    3.35   3.11 -999 -999 -999  33.8  53.6 1017.3 -9.9 -9.999 -99.9 -99.99 -9.99
2019/11/12 17:42 EST    3.48   3.28 -999 -999 -999  33.6  53.8 1017.5 -9.9 -9.999 -99.9 -99.99 -9.99
2019/11/12 17:48 EST    3.61   3.50 -999 -999 -999  33.6  53.8 1017.5 -9.9 -9.999 -99.9 -99.99 -9.99
2019/11/12 17:54 EST    3.74   3.68 -999 -999 -999  34.3  53.6 1017.6 -9.9 -9.999 -99.9 -99.99 -9.99
2019/11/12 18:00 EST    3.86   3.83 -999 -999 -999  34.2  53.4 1017.8 -9.9 -9.999 -99.9 -99.99 -9.99
2019/11/12 18:06 EST    3.97   4.01 -999 -999 -999  34.0  53.4 1017.8 -9.9 -9.999 -99.9 -99.99 -9.99
2019/11/12 18:12 EST    4.08   4.19 -999 -999 -999  34.3  53.4 1018.1 -9.9 -9.999 -99.9 -99.99 -9.99
2019/11/12 18:18 EST    4.18   4.33 -999 -999 -999  34.0  53.6 1018.3 -9.9 -9.999 -99.9 -99.99 -9.99
2019/11/12 18:24 EST    4.28   4.47 -999 -999 -999  34.0  53.6 1018.4 -9.9 -9.999 -99.9 -99.99 -9.99
2019/11/12 18:30 EST    4.37   4.61 -999 -999 -999  33.4  53.6 1018.5 -9.9 -9.999 -99.9 -99.99 -9.99
2019/11/12 18:36 EST    4.46   4.77 -999 -999 -999  33.4  53.4 1018.6 -9.9 -9.999 -99.9 -99.99 -9.99
2019/11/12 18:42 EST    4.53   4.87 -999 -999 -999  33.4  53.4 1018.8 -9.9 -9.999 -99.9 -99.99 -9.99
2019/11/12 18:48 EST    4.61   4.95 -999 -999 -999  33.4  53.6 1019.0 -9.9 -9.999 -99.9 -99.99 -9.99
2019/11/12 18:54 EST    4.67   5.06 -999 -999 -999  33.4  53.6 1019.2 -9.9 -9.999 -99.9 -99.99 -9.99
2019/11/12 19:00 EST    4.73   5.14 -999 -999 -999  32.4  53.6 1019.3 -9.9 -9.999 -99.9 -99.99 -9.99
2019/11/12 19:06 EST    4.79   5.16 -999 -999 -999  32.9  53.6 1019.4 -9.9 -9.999 -99.9 -99.99 -9.99
2019/11/12 19:12 EST    4.84   5.23 -999 -999 -999  32.4  53.6 1019.5 -9.9 -9.999 -99.9 -99.99 -9.99
2019/11/12 19:18 EST    4.88   5.26 -999 -999 -999  32.4  53.6 1019.6 -9.9 -9.999 -99.9 -99.99 -9.99
2019/11/12 19:24 EST    4.92   5.30 -999 -999 -999  31.3  53.6 1019.7 -9.9 -9.999 -99.9 -99.99 -9.99
2019/11/12 19:30 EST    4.95   5.31 -999 -999 -999  31.3  53.6 1019.7 -9.9 -9.999 -99.9 -99.99 -9.99
2019/11/12 19:36 EST    4.98   5.28 -999 -999 -999  31.3  53.6 1019.8 -9.9 -9.999 -99.9 -99.99 -9.99
2019/11/12 19:42 EST    5.00   5.23 -999 -999 -999  31.6  53.6 1019.9 -9.9 -9.999 -99.9 -99.99 -9.99
2019/11/12 19:48 EST    5.02   5.21 -999 -999 -999  31.6  53.6 1019.9 -9.9 -9.999 -99.9 -99.99 -9.99
2019/11/12 19:54 EST    5.03   5.18 -999 -999 -999  31.3  53.6 1020.0 -9.9 -9.999 -99.9 -99.99 -9.99
2019/11/12 20:00 EST    5.04   5.09 -999 -999 -999  30.9  53.6 1020.1 -9.9 -9.999 -99.9 -99.99 -9.99
2019/11/12 20:06 EST    5.04   5.06 -999 -999 -999  31.3  53.6 1020.2 -9.9 -9.999 -99.9 -99.99 -9.99
2019/11/12 20:12 EST    5.03   4.98 -999 -999 -999  30.6  53.6 1020.3 -9.9 -9.999 -99.9 -99.99 -9.99
2019/11/12 20:18 EST    5.02   4.85 -999 -999 -999  30.4  53.6 1020.4 -9.9 -9.999 -99.9 -99.99 -9.99
2019/11/12 20:24 EST    5.01   4.77 -999 -999 -999  30.9  53.6 1020.5 -9.9 -9.999 -99.9 -99.99 -9.99
2019/11/12 20:30 EST    4.98   4.63 -999 -999 -999  30.2  53.6 1020.6 -9.9 -9.999 -99.9 -99.99 -9.99
2019/11/12 20:36 EST    4.96   4.50 -999 -999 -999  30.0  53.6 1020.7 -9.9 -9.999 -99.9 -99.99 -9.99
2019/11/12 20:42 EST    4.92   4.38 -999 -999 -999  29.7  53.4 1020.8 -9.9 -9.999 -99.9 -99.99 -9.99
2019/11/12 20:48 EST    4.88   4.22 -999 -999 -999  29.8  53.4 1020.9 -9.9 -9.999 -99.9 -99.99 -9.99
2019/11/12 20:54 EST    4.84   4.12 -999 -999 -999  29.7  53.2 1021.0 -9.9 -9.999 -99.9 -99.99 -9.99
2019/11/12 21:00 EST    4.79   4.00 -999 -999 -999  30.0  53.2 1021.0 -9.9 -9.999 -99.9 -99.99 -9.99
2019/11/12 21:06 EST    4.73   3.87 -999 -999 -999  30.4  53.2 1021.2 -9.9 -9.999 -99.9 -99.99 -9.99
2019/11/12 21:12 EST    4.67   3.77 -999 -999 -999  29.3  53.1 1021.4 -9.9 -9.999 -99.9 -99.99 -9.99
2019/11/12 21:18 EST    4.60   3.62 -999 -999 -999  29.1  53.1 1021.5 -9.9 -9.999 -99.9 -99.99 -9.99
2019/11/12 21:24 EST    4.53   3.51 -999 -999 -999  29.1  53.1 1021.5 -9.9 -9.999 -99.9 -99.99 -9.99
2019/11/12 21:30 EST    4.45   3.39 -999 -999 -999  29.3  52.9 1021.4 -9.9 -9.999 -99.9 -99.99 -9.99
2019/11/12 21:36 EST    4.36   3.27 -999 -999 -999  29.5  52.9 1021.6 -9.9 -9.999 -99.9 -99.99 -9.99
2019/11/12 21:42 EST    4.27   3.16 -999 -999 -999  29.1  52.9 1021.6 -9.9 -9.999 -99.9 -99.99 -9.99
2019/11/12 21:48 EST    4.18   3.03 -999 -999 -999  29.1  52.9 1021.7 -9.9 -9.999 -99.9 -99.99 -9.99
2019/11/12 21:54 EST    4.08   2.94 -999 -999 -999  28.0  52.7 1021.8 -9.9 -9.999 -99.9 -99.99 -9.99
2019/11/12 22:00 EST    3.98   2.84 -999 -999 -999  29.1  52.7 1021.8 -9.9 -9.999 -99.9 -99.99 -9.99
2019/11/12 22:06 EST    3.87   2.70 -999 -999 -999  28.0  52.7 1021.9 -9.9 -9.999 -99.9 -99.99 -9.99
2019/11/12 22:12 EST    3.76   2.58 -999 -999 -999  28.6  52.7 1021.9 -9.9 -9.999 -99.9 -99.99 -9.99
2019/11/12 22:18 EST    3.64   2.46 -999 -999 -999  28.0  52.7 1021.9 -9.9 -9.999 -99.9 -99.99 -9.99
2019/11/12 22:24 EST    3.52   2.34 -999 -999 -999  28.4  52.7 1022.0 -9.9 -9.999 -99.9 -99.99 -9.99
2019/11/12 22:30 EST    3.40   2.24 -999 -999 -999  28.0  52.7 1022.0 -9.9 -9.999 -99.9 -99.99 -9.99
2019/11/12 22:36 EST    3.28   2.14 -999 -999 -999  27.9  52.7 1022.0 -9.9 -9.999 -99.9 -99.99 -9.99
2019/11/12 22:42 EST    3.15   2.04 -999 -999 -999  27.1  52.7 1022.1 -9.9 -9.999 -99.9 -99.99 -9.99
2019/11/12 22:48 EST    3.02   1.95 -999 -999 -999  27.3  52.5 1022.1 -9.9 -9.999 -99.9 -99.99 -9.99
2019/11/12 22:54 EST    2.90   1.85 -999 -999 -999  27.3  52.5 1022.1 -9.9 -9.999 -99.9 -99.99 -9.99
2019/11/12 23:00 EST    2.77   1.74 -999 -999 -999  27.1  52.5 1022.1 -9.9 -9.999 -99.9 -99.99 -9.99
2019/11/12 23:06 EST    2.64   1.63 -999 -999 -999  27.9  52.5 1022.2 -9.9 -9.999 -99.9 -99.99 -9.99
2019/11/12 23:12 EST    2.52   1.52 -999 -999 -999  27.5  52.3 1022.1 -9.9 -9.999 -99.9 -99.99 -9.99
2019/11/12 23:18 EST    2.39   1.42 -999 -999 -999  27.9  52.3 1022.2 -9.9 -9.999 -99.9 -99.99 -9.99
2019/11/12 23:24 EST    2.26   1.29 -999 -999 -999  27.1  52.2 1022.3 -9.9 -9.999 -99.9 -99.99 -9.99
2019/11/12 23:30 EST    2.14   1.22 -999 -999 -999  27.3  52.2 1022.3 -9.9 -9.999 -99.9 -99.99 -9.99
2019/11/12 23:36 EST    2.02   1.14 -999 -999 -999  27.3  52.2 1022.3 -9.9 -9.999 -99.9 -99.99 -9.99
2019/11/12 23:42 EST    1.90   1.03 -999 -999 -999  27.0  52.2 1022.4 -9.9 -9.999 -99.9 -99.99 -9.99
2019/11/12 23:48 EST    1.78   0.94 -999 -999 -999  27.1  52.0 1022.3 -9.9 -9.999 -99.9 -99.99 -9.99
2019/11/12 23:54 EST    1.67   0.82 -999 -999 -999  27.0  52.0 1022.4 -9.9 -9.999 -99.9 -99.99 -9.99
2019/11/13 00:00 EST    1.55   0.77 -999 -999 -999  27.0  52.0 1022.4 -9.9 -9.999 -99.9 -99.99 -9.99
2019/11/13 00:06 EST    1.45   0.71 -999 -999 -999  27.7  52.0 1022.4 -9.9 -9.999 -99.9 -99.99 -9.99
2019/11/13 00:12 EST    1.34   0.64 -999 -999 -999  27.0  52.0 1022.4 -9.9 -9.999 -99.9 -99.99 -9.99
2019/11/13 00:18 EST    1.24   0.58 -999 -999 -999  26.8  52.2 1022.5 -9.9 -9.999 -99.9 -99.99 -9.99
2019/11/13 00:24 EST    1.14   0.53 -999 -999 -999  27.0  52.0 1022.5 -9.9 -9.999 -99.9 -99.99 -9.99
2019/11/13 00:30 EST    1.04   0.48 -999 -999 -999  27.3  52.2 1022.5 -9.9 -9.999 -99.9 -99.99 -9.99
2019/11/13 00:36 EST    0.95   0.44 -999 -999 -999  27.1  52.0 1022.5 -9.9 -9.999 -99.9 -99.99 -9.99
2019/11/13 00:42 EST    0.86   0.40 -999 -999 -999  27.1  52.0 1022.5 -9.9 -9.999 -99.9 -99.99 -9.99
2019/11/13 00:48 EST    0.78   0.36 -999 -999 -999  27.1  52.0 1022.6 -9.9 -9.999 -99.9 -99.99 -9.99
2019/11/13 00:54 EST    0.70   0.33 -999 -999 -999  27.0  52.0 1022.6 -9.9 -9.999 -99.9 -99.99 -9.99
2019/11/13 01:00 EST    0.62   0.29 -999 -999 -999  26.6  52.0 1022.7 -9.9 -9.999 -99.9 -99.99 -9.99
2019/11/13 01:06 EST    0.55   0.28 -999 -999 -999  26.2  52.0 1022.6 -9.9 -9.999 -99.9 -99.99 -9.99
2019/11/13 01:12 EST    0.48   0.22 -999 -999 -999  26.6  52.0 1022.7 -9.9 -9.999 -99.9 -99.99 -9.99
2019/11/13 01:18 EST    0.41   0.20 -999 -999 -999  26.1  52.0 1022.8 -9.9 -9.999 -99.9 -99.99 -9.99
2019/11/13 01:24 EST    0.35   0.15 -999 -999 -999  26.2  52.0 1022.8 -9.9 -9.999 -99.9 -99.99 -9.99
2019/11/13 01:30 EST    0.29   0.12 -999 -999 -999  26.4  52.0 1022.9 -9.9 -9.999 -99.9 -99.99 -9.99
2019/11/13 01:36 EST    0.24   0.08 -999 -999 -999  26.4  52.0 1022.9 -9.9 -9.999 -99.9 -99.99 -9.99
2019/11/13 01:42 EST    0.20   0.04 -999 -999 -999  26.1  52.0 1023.0 -9.9 -9.999 -99.9 -99.99 -9.99
2019/11/13 01:48 EST    0.15   0.01 -999 -999 -999  26.1  51.8 1023.0 -9.9 -9.999 -99.9 -99.99 -9.99
2019/11/13 01:54 EST    0.12  -0.03 -999 -999 -999  26.4  51.8 1023.1 -9.9 -9.999 -99.9 -99.99 -9.99
2019/11/13 02:00 EST    0.09  -0.07 -999 -999 -999  26.6  51.8 1023.2 -9.9 -9.999 -99.9 -99.99 -9.99
2019/11/13 02:06 EST    0.06  -0.10 -999 -999 -999  26.1  51.8 1023.1 -9.9 -9.999 -99.9 -99.99 -9.99
2019/11/13 02:12 EST    0.04  -0.13 -999 -999 -999  25.9  51.8 1023.3 -9.9 -9.999 -99.9 -99.99 -9.99
2019/11/13 02:18 EST    0.03  -0.16 -999 -999 -999  25.9  51.8 1023.4 -9.9 -9.999 -99.9 -99.99 -9.99
2019/11/13 02:24 EST    0.03  -0.14 -999 -999 -999  25.9  51.8 1023.4 -9.9 -9.999 -99.9 -99.99 -9.99
2019/11/13 02:30 EST    0.03  -0.16 -999 -999 -999  26.2  51.8 1023.5 -9.9 -9.999 -99.9 -99.99 -9.99
2019/11/13 02:36 EST    0.04  -0.15 -999 -999 -999  25.9  51.6 1023.6 -9.9 -9.999 -99.9 -99.99 -9.99
2019/11/13 02:42 EST    0.06  -0.18 -999 -999 -999  26.2  51.8 1023.6 -9.9 -9.999 -99.9 -99.99 -9.99
2019/11/13 02:48 EST    0.08  -0.16 -999 -999 -999  25.7  51.8 1023.6 -9.9 -9.999 -99.9 -99.99 -9.99
2019/11/13 02:54 EST    0.12  -0.14 -999 -999 -999  26.1  51.8 1023.7 -9.9 -9.999 -99.9 -99.99 -9.99
2019/11/13 03:00 EST    0.16  -0.09 -999 -999 -999  26.1  51.8 1023.7 -9.9 -9.999 -99.9 -99.99 -9.99
2019/11/13 03:06 EST    0.21  -0.05 -999 -999 -999  25.5  51.8 1023.7 -9.9 -9.999 -99.9 -99.99 -9.99
2019/11/13 03:12 EST    0.28   0.02 -999 -999 -999  25.5  51.8 1023.8 -9.9 -9.999 -99.9 -99.99 -9.99
2019/11/13 03:18 EST    0.35   0.11 -999 -999 -999  25.5  51.8 1023.8 -9.9 -9.999 -99.9 -99.99 -9.99
2019/11/13 03:24 EST    0.43   0.18 -999 -999 -999  25.9  51.6 1023.8 -9.9 -9.999 -99.9 -99.99 -9.99
2019/11/13 03:30 EST    0.51   0.27 -999 -999 -999  25.3  51.6 1023.9 -9.9 -9.999 -99.9 -99.99 -9.99
2019/11/13 03:36 EST    0.61   0.38 -999 -999 -999  25.3  51.8 1023.9 -9.9 -9.999 -99.9 -99.99 -9.99
2019/11/13 03:42 EST    0.72   0.47 -999 -999 -999  25.7  51.8 1024.0 -9.9 -9.999 -99.9 -99.99 -9.99
2019/11/13 03:48 EST    0.83   0.56 -999 -999 -999  25.3  51.8 1024.1 -9.9 -9.999 -99.9 -99.99 -9.99
2019/11/13 03:54 EST    0.96   0.69 -999 -999 -999  25.2  51.6 1024.1 -9.9 -9.999 -99.9 -99.99 -9.99
2019/11/13 04:00 EST    1.09   0.82 -999 -999 -999  25.0  51.6 1024.2 -9.9 -9.999 -99.9 -99.99 -9.99
2019/11/13 04:06 EST    1.23   0.94 -999 -999 -999  25.9  51.4 1024.3 -9.9 -9.999 -99.9 -99.99 -9.99
2019/11/13 04:12 EST    1.37   1.09 -999 -999 -999  25.0  51.4 1024.4 -9.9 -9.999 -99.9 -99.99 -9.99
2019/11/13 04:18 EST    1.52   1.21 -999 -999 -999  25.3  51.3 1024.5 -9.9 -9.999 -99.9 -99.99 -9.99
2019/11/13 04:24 EST    1.68   1.36 -999 -999 -999  24.8  51.3 1024.6 -9.9 -9.999 -99.9 -99.99 -9.99
2019/11/13 04:30 EST    1.84   1.50 -999 -999 -999  25.2  51.3 1024.6 -9.9 -9.999 -99.9 -99.99 -9.99
2019/11/13 04:36 EST    2.01   1.65 -999 -999 -999  25.2  51.3 1024.7 -9.9 -9.999 -99.9 -99.99 -9.99
2019/11/13 04:42 EST    2.18   1.80 -999 -999 -999  25.2  51.3 1024.8 -9.9 -9.999 -99.9 -99.99 -9.99
2019/11/13 04:48 EST    2.35   1.93 -999 -999 -999  25.0  51.1 1024.8 -9.9 -9.999 -99.9 -99.99 -9.99
2019/11/13 04:54 EST    2.53   2.07 -999 -999 -999  25.0  50.9 1024.8 -9.9 -9.999 -99.9 -99.99 -9.99
2019/11/13 05:00 EST    2.71   2.22 -999 -999 -999  25.2  50.9 1024.9 -9.9 -9.999 -99.9 -99.99 -9.99
2019/11/13 05:06 EST    2.88   2.40 -999 -999 -999  25.3  50.9 1024.9 -9.9 -9.999 -99.9 -99.99 -9.99
2019/11/13 05:12 EST    3.06   2.55 -999 -999 -999  25.0  50.9 1025.0 -9.9 -9.999 -99.9 -99.99 -9.99
2019/11/13 05:18 EST    3.24   2.72 -999 -999 -999  25.5  51.1 1025.0 -9.9 -9.999 -99.9 -99.99 -9.99
2019/11/13 05:24 EST    3.41   2.87 -999 -999 -999  25.2  51.3 1025.1 -9.9 -9.999 -99.9 -99.99 -9.99
2019/11/13 05:30 EST    3.58   3.00 -999 -999 -999  25.0  51.4 1025.1 -9.9 -9.999 -99.9 -99.99 -9.99
2019/11/13 05:36 EST    3.75   3.17 -999 -999 -999  25.2  51.8 1025.2 -9.9 -9.999 -99.9 -99.99 -9.99
2019/11/13 05:42 EST    3.91   3.30 -999 -999 -999  25.0  52.0 1025.2 -9.9 -9.999 -99.9 -99.99 -9.99
2019/11/13 05:48 EST    4.07   3.44 -999 -999 -999  25.3  52.0 1025.3 -9.9 -9.999 -99.9 -99.99 -9.99
2019/11/13 05:54 EST    4.22   3.56 -999 -999 -999  25.3  52.0 1025.4 -9.9 -9.999 -99.9 -99.99 -9.99
2019/11/13 06:00 EST    4.37   3.69 -999 -999 -999  24.6  51.6 1025.5 -9.9 -9.999 -99.9 -99.99 -9.99
2019/11/13 06:06 EST    4.51   3.83 -999 -999 -999  25.0  51.6 1025.5 -9.9 -9.999 -99.9 -99.99 -9.99
2019/11/13 06:12 EST    4.65   3.94 -999 -999 -999  24.8  51.6 1025.5 -9.9 -9.999 -99.9 -99.99 -9.99
2019/11/13 06:18 EST    4.77   4.06 -999 -999 -999  24.1  51.6 1025.5 -9.9 -9.999 -99.9 -99.99 -9.99
2019/11/13 06:24 EST    4.90   4.13 -999 -999 -999  23.9  51.8 1025.5 -9.9 -9.999 -99.9 -99.99 -9.99
2019/11/13 06:30 EST    5.01   4.22 -999 -999 -999  23.5  52.0 1025.6 -9.9 -9.999 -99.9 -99.99 -9.99
2019/11/13 06:36 EST    5.11   4.30 -999 -999 -999  23.9  52.2 1025.7 -9.9 -9.999 -99.9 -99.99 -9.99
2019/11/13 06:42 EST    5.21   4.37 -999 -999 -999  23.7  52.2 1025.9 -9.9 -9.999 -99.9 -99.99 -9.99
2019/11/13 06:48 EST    5.30   4.41 -999 -999 -999  23.7  52.7 1026.0 -9.9 -9.999 -99.9 -99.99 -9.99
2019/11/13 06:54 EST    5.39   4.46 -999 -999 -999  23.7  52.7 1026.0 -9.9 -9.999 -99.9 -99.99 -9.99
2019/11/13 07:00 EST    5.46   4.52 -999 -999 -999  23.9  52.9 1026.1 -9.9 -9.999 -99.9 -99.99 -9.99
2019/11/13 07:06 EST    5.53   4.59 -999 -999 -999  24.1  52.9 1026.2 -9.9 -9.999 -99.9 -99.99 -9.99
2019/11/13 07:12 EST    5.59   4.64 -999 -999 -999  24.3  53.1 1026.3 -9.9 -9.999 -99.9 -99.99 -9.99
2019/11/13 07:18 EST    5.64   4.69 -999 -999 -999  24.4  53.2 1026.4 -9.9 -9.999 -99.9 -99.99 -9.99
2019/11/13 07:24 EST    5.69   4.72 -999 -999 -999  24.6  53.2 1026.5 -9.9 -9.999 -99.9 -99.99 -9.99
2019/11/13 07:30 EST    5.73   4.76 -999 -999 -999  24.6  53.2 1026.5 -9.9 -9.999 -99.9 -99.99 -9.99
2019/11/13 07:36 EST    5.76   4.81 -999 -999 -999  25.2  53.2 1026.6 -9.9 -9.999 -99.9 -99.99 -9.99
2019/11/13 07:42 EST    5.79   4.83 -999 -999 -999  25.2  53.4 1026.7 -9.9 -9.999 -99.9 -99.99 -9.99
2019/11/13 07:48 EST    5.81   4.88 -999 -999 -999  24.8  53.4 1026.8 -9.9 -9.999 -99.9 -99.99 -9.99
2019/11/13 07:54 EST    5.83   4.92 -999 -999 -999  25.7  53.4 1026.9 -9.9 -9.999 -99.9 -99.99 -9.99
2019/11/13 08:00 EST    5.83   4.97 -999 -999 -999  25.3  53.4 1027.0 -9.9 -9.999 -99.9 -99.99 -9.99
2019/11/13 08:06 EST    5.84   5.01 -999 -999 -999  26.1  53.1 1027.0 -9.9 -9.999 -99.9 -99.99 -9.99
2019/11/13 08:12 EST    5.83   5.05 -999 -999 -999  26.1  53.1 1027.2 -9.9 -9.999 -99.9 -99.99 -9.99
2019/11/13 08:18 EST    5.83   5.08 -999 -999 -999  25.9  52.9 1027.2 -9.9 -9.999 -99.9 -99.99 -9.99
2019/11/13 08:24 EST    5.81   5.10 -999 -999 -999  26.2  52.7 1027.3 -9.9 -9.999 -99.9 -99.99 -9.99
2019/11/13 08:30 EST    5.79   5.12 -999 -999 -999  25.5  52.5 1027.2 -9.9 -9.999 -99.9 -99.99 -9.99
2019/11/13 08:36 EST    5.77   5.13 -999 -999 -999  25.9  52.5 1027.2 -9.9 -9.999 -99.9 -99.99 -9.99
2019/11/13 08:42 EST    5.74   5.12 -999 -999 -999  26.4  52.5 1027.2 -9.9 -9.999 -99.9 -99.99 -9.99
2019/11/13 08:48 EST    5.71   5.11 -999 -999 -999  26.2  52.5 1027.3 -9.9 -9.999 -99.9 -99.99 -9.99
2019/11/13 08:54 EST    5.67   5.09 -999 -999 -999  26.2  52.5 1027.4 -9.9 -9.999 -99.9 -99.99 -9.99
2019/11/13 09:00 EST    5.62   5.08 -999 -999 -999  27.5  52.5 1027.4 -9.9 -9.999 -99.9 -99.99 -9.99
2019/11/13 09:06 EST    5.57   5.01 -999 -999 -999  28.0  52.5 1027.4 -9.9 -9.999 -99.9 -99.99 -9.99
2019/11/13 09:12 EST    5.52   4.97 -999 -999 -999  27.7  52.3 1027.4 -9.9 -9.999 -99.9 -99.99 -9.99
2019/11/13 09:18 EST    5.46   4.90 -999 -999 -999  28.2  52.3 1027.4 -9.9 -9.999 -99.9 -99.99 -9.99
2019/11/13 09:24 EST    5.39   4.84 -999 -999 -999  27.7  52.3 1027.4 -9.9 -9.999 -99.9 -99.99 -9.99
2019/11/13 09:30 EST    5.32   4.74 -999 -999 -999  27.7  52.3 1027.4 -9.9 -9.999 -99.9 -99.99 -9.99
2019/11/13 09:36 EST    5.25   4.67 -999 -999 -999  27.9  52.3 1027.6 -9.9 -9.999 -99.9 -99.99 -9.99
2019/11/13 09:42 EST    5.17   4.56 -999 -999 -999  28.4  52.3 1027.6 -9.9 -9.999 -99.9 -99.99 -9.99
2019/11/13 09:48 EST    5.08   4.45 -999 -999 -999  28.2  52.3 1027.7 -9.9 -9.999 -99.9 -99.99 -9.99
2019/11/13 09:54 EST    4.99   4.36 -999 -999 -999  28.2  52.2 1027.7 -9.9 -9.999 -99.9 -99.99 -9.99
2019/11/13 10:00 EST    4.90   4.23 -999 -999 -999  28.2  52.2 1027.6 -9.9 -9.999 -99.9 -99.99 -9.99
2019/11/13 10:06 EST    4.80   4.08 -999 -999 -999  28.6  52.2 1027.7 -9.9 -9.999 -99.9 -99.99 -9.99
2019/11/13 10:12 EST    4.69   3.96 -999 -999 -999  29.3  52.2 1027.8 -9.9 -9.999 -99.9 -99.99 -9.99
2019/11/13 10:18 EST    4.59   3.86 -999 -999 -999  29.3  52.2 1027.8 -9.9 -9.999 -99.9 -99.99 -9.99
2019/11/13 10:24 EST    4.48   3.72 -999 -999 -999  29.1  52.2 1027.8 -9.9 -9.999 -99.9 -99.99 -9.99
2019/11/13 10:30 EST    4.36   3.58 -999 -999 -999  28.8  52.2 1027.7 -9.9 -9.999 -99.9 -99.99 -9.99
2019/11/13 10:36 EST    4.24   3.47 -999 -999 -999  29.5  52.0 1027.7 -9.9 -9.999 -99.9 -99.99 -9.99
2019/11/13 10:42 EST    4.12   3.36 -999 -999 -999  29.5  52.0 1027.6 -9.9 -9.999 -99.9 -99.99 -9.99
2019/11/13 10:48 EST    4.00   3.23 -999 -999 -999  29.5  52.0 1027.6 -9.9 -9.999 -99.9 -99.99 -9.99
2019/11/13 10:54 EST    3.87   3.09 -999 -999 -999  29.3  51.8 1027.5 -9.9 -9.999 -99.9 -99.99 -9.99
2019/11/13 11:00 EST    3.75   2.97 -999 -999 -999  29.1  51.8 1027.4 -9.9 -9.999 -99.9 -99.99 -9.99
2019/11/13 11:06 EST    3.62   2.84 -999 -999 -999  29.3  51.8 1027.4 -9.9 -9.999 -99.9 -99.99 -9.99
2019/11/13 11:12 EST    3.49   2.70 -999 -999 -999  29.8  51.6 1027.4 -9.9 -9.999 -99.9 -99.99 -9.99
2019/11/13 11:18 EST    3.36   2.55 -999 -999 -999  29.8  51.6 1027.5 -9.9 -9.999 -99.9 -99.99 -9.99
2019/11/13 11:24 EST    3.23   2.42 -999 -999 -999  29.3  51.6 1027.6 -9.9 -9.999 -99.9 -99.99 -9.99
2019/11/13 11:30 EST    3.09   2.28 -999 -999 -999  30.2  51.6 1027.6 -9.9 -9.999 -99.9 -99.99 -9.99
2019/11/13 11:36 EST    2.96   2.14 -999 -999 -999  30.9  51.6 1027.5 -9.9 -9.999 -99.9 -99.99 -9.99
2019/11/13 11:42 EST    2.83   2.00 -999 -999 -999  30.9  51.6 1027.7 -9.9 -9.999 -99.9 -99.99 -9.99
2019/11/13 11:48 EST    2.70   1.86 -999 -999 -999  30.9  51.6 1027.7 -9.9 -9.999 -99.9 -99.99 -9.99
2019/11/13 11:54 EST    2.57   1.73 -999 -999 -999  30.2  51.6 1027.7 -9.9 -9.999 -99.9 -99.99 -9.99
2019/11/13 12:00 EST    2.45   1.61 -999 -999 -999  31.1  51.4 1027.6 -9.9 -9.999 -99.9 -99.99 -9.99
2019/11/13 12:06 EST    2.32   1.51 -999 -999 -999  30.7  51.4 1027.5 -9.9 -9.999 -99.9 -99.99 -9.99
2019/11/13 12:12 EST    2.20   1.39 -999 -999 -999  30.9  51.4 1027.6 -9.9 -9.999 -99.9 -99.99 -9.99
2019/11/13 12:18 EST    2.08   1.30 -999 -999 -999  31.8  51.4 1027.7 -9.9 -9.999 -99.9 -99.99 -9.99
2019/11/13 12:24 EST    1.96   1.19 -999 -999 -999  32.2  51.4 1027.5 -9.9 -9.999 -99.9 -99.99 -9.99
2019/11/13 12:30 EST    1.84   1.10 -999 -999 -999  31.6  51.3 1027.4 -9.9 -9.999 -99.9 -99.99 -9.99
2019/11/13 12:36 EST    1.73   1.03 -999 -999 -999  31.1  51.3 1027.4 -9.9 -9.999 -99.9 -99.99 -9.99
2019/11/13 12:42 EST    1.62   0.93 -999 -999 -999  31.1  51.3 1027.3 -9.9 -9.999 -99.9 -99.99 -9.99
2019/11/13 12:48 EST    1.51   0.87 -999 -999 -999  32.2  51.3 1027.4 -9.9 -9.999 -99.9 -99.99 -9.99
2019/11/13 12:54 EST    1.40   0.79 -999 -999 -999  32.0  51.3 1027.3 -9.9 -9.999 -99.9 -99.99 -9.99
2019/11/13 13:00 EST    1.30   0.72 -999 -999 -999  31.5  51.3 1027.4 -9.9 -9.999 -99.9 -99.99 -9.99
2019/11/13 13:06 EST    1.19   0.67 -999 -999 -999  32.7  51.3 1027.3 -9.9 -9.999 -99.9 -99.99 -9.99
2019/11/13 13:12 EST    1.10   0.59 -999 -999 -999  32.9  51.3 1027.3 -9.9 -9.999 -99.9 -99.99 -9.99
2019/11/13 13:18 EST    1.00   0.54 -999 -999 -999  33.3  51.3 1027.5 -9.9 -9.999 -99.9 -99.99 -9.99
2019/11/13 13:24 EST    0.91   0.48 -999 -999 -999  33.1  51.3 1027.6 -9.9 -9.999 -99.9 -99.99 -9.99
2019/11/13 13:30 EST    0.82   0.44 -999 -999 -999  32.9  51.3 1027.5 -9.9 -9.999 -99.9 -99.99 -9.99
2019/11/13 13:36 EST    0.73   0.36 -999 -999 -999  33.4  51.3 1027.5 -9.9 -9.999 -99.9 -99.99 -9.99
2019/11/13 13:42 EST    0.65   0.30 -999 -999 -999  33.1  51.3 1027.4 -9.9 -9.999 -99.9 -99.99 -9.99
2019/11/13 13:48 EST    0.57   0.24 -999 -999 -999  33.1  51.4 1027.6 -9.9 -9.999 -99.9 -99.99 -9.99
2019/11/13 13:54 EST    0.49   0.17 -999 -999 -999  32.5  51.4 1027.7 -9.9 -9.999 -99.9 -99.99 -9.99
2019/11/13 14:00 EST    0.42   0.11 -999 -999 -999  32.7  51.4 1027.5 -9.9 -9.999 -99.9 -99.99 -9.99
2019/11/13 14:06 EST    0.35   0.06 -999 -999 -999  33.1  51.4 1027.5 -9.9 -9.999 -99.9 -99.99 -9.99
2019/11/13 14:12 EST    0.29  -0.01 -999 -999 -999  33.6  51.4 1027.5 -9.9 -9.999 -99.9 -99.99 -9.99
2019/11/13 14:18 EST    0.23  -0.04 -999 -999 -999  33.8  51.4 1027.6 -9.9 -9.999 -99.9 -99.99 -9.99
2019/11/13 14:24 EST    0.17  -0.07 -999 -999 -999  34.0  51.4 1027.6 -9.9 -9.999 -99.9 -99.99 -9.99
2019/11/13 14:30 EST    0.12  -0.12 -999 -999 -999  32.7  51.4 1027.6 -9.9 -9.999 -99.9 -99.99 -9.99
2019/11/13 14:36 EST    0.08  -0.15 -999 -999 -999  33.6  51.4 1027.7 -9.9 -9.999 -99.9 -99.99 -9.99
2019/11/13 14:42 EST    0.04  -0.18 -999 -999 -999  33.1  51.4 1027.8 -9.9 -9.999 -99.9 -99.99 -9.99
2019/11/13 14:48 EST    0.01  -0.20 -999 -999 -999  34.5  51.4 1027.8 -9.9 -9.999 -99.9 -99.99 -9.99
2019/11/13 14:54 EST   -0.01  -0.23 -999 -999 -999  32.7  51.3 1027.8 -9.9 -9.999 -99.9 -99.99 -9.99
2019/11/13 15:00 EST   -0.03  -0.24 -999 -999 -999  34.5  51.3 1027.7 -9.9 -9.999 -99.9 -99.99 -9.99
2019/11/13 15:06 EST   -0.04  -0.24 -999 -999 -999  34.3  51.3 1027.9 -9.9 -9.999 -99.9 -99.99 -9.99
2019/11/13 15:12 EST   -0.04  -0.22 -999 -999 -999  33.6  51.1 1027.9 -9.9 -9.999 -99.9 -99.99 -9.99
2019/11/13 15:18 EST   -0.04  -0.20 -999 -999 -999  33.8  51.1 1028.1 -9.9 -9.999 -99.9 -99.99 -9.99
2019/11/13 15:24 EST   -0.02  -0.15 -999 -999 -999  33.6  51.1 1028.2 -9.9 -9.999 -99.9 -99.99 -9.99
2019/11/13 15:30 EST    0.00  -0.13 -999 -999 -999  33.8  51.3 1028.3 -9.9 -9.999 -99.9 -99.99 -9.99
2019/11/13 15:36 EST    0.03  -0.04 -999 -999 -999  33.8  51.3 1028.2 -9.9 -9.999 -99.9 -99.99 -9.99
2019/11/13 15:42 EST    0.08   0.05 -999 -999 -999  34.3  51.4 1028.2 -9.9 -9.999 -99.9 -99.99 -9.99
2019/11/13 15:48 EST    0.13   0.16 -999 -999 -999  34.0  51.4 1028.1 -9.9 -9.999 -99.9 -99.99 -9.99
2019/11/13 15:54 EST    0.19   0.22 -999 -999 -999  34.3  51.4 1028.3 -9.9 -9.999 -99.9 -99.99 -9.99
2019/11/13 16:00 EST    0.26   0.35 -999 -999 -999  34.7  51.3 1028.4 -9.9 -9.999 -99.9 -99.99 -9.99
2019/11/13 16:06 EST    0.33   0.42 -999 -999 -999  33.6  51.3 1028.5 -9.9 -9.999 -99.9 -99.99 -9.99
2019/11/13 16:12 EST    0.42   0.58 -999 -999 -999  34.0  51.3 1028.6 -9.9 -9.999 -99.9 -99.99 -9.99
2019/11/13 16:18 EST    0.52   0.70 -999 -999 -999  33.8  51.3 1028.6 -9.9 -9.999 -99.9 -99.99 -9.99
2019/11/13 16:24 EST    0.62   0.83 -999 -999 -999  33.6  51.3 1028.6 -9.9 -9.999 -99.9 -99.99 -9.99
2019/11/13 16:30 EST    0.73   0.96 -999 -999 -999  33.4  51.1 1028.4 -9.9 -9.999 -99.9 -99.99 -9.99
2019/11/13 16:36 EST    0.85   1.10 -999 -999 -999  33.4  51.1 1028.4 -9.9 -9.999 -99.9 -99.99 -9.99
2019/11/13 16:42 EST    0.98   1.25 -999 -999 -999  33.3  51.1 1028.5 -9.9 -9.999 -99.9 -99.99 -9.99
2019/11/13 16:48 EST    1.11   1.40 -999 -999 -999  33.3  51.1 1028.7 -9.9 -9.999 -99.9 -99.99 -9.99
2019/11/13 16:54 EST    1.25   1.56 -999 -999 -999  33.1  51.1 1028.8 -9.9 -9.999 -99.9 -99.99 -9.99
2019/11/13 17:00 EST    1.39   1.70 -999 -999 -999  33.8  51.1 1028.9 -9.9 -9.999 -99.9 -99.99 -9.99
2019/11/13 17:06 EST    1.54   1.85 -999 -999 -999  33.8  51.1 1028.9 -9.9 -9.999 -99.9 -99.99 -9.99
2019/11/13 17:12 EST    1.69   2.01 -999 -999 -999  33.8  50.9 1029.1 -9.9 -9.999 -99.9 -99.99 -9.99
2019/11/13 17:18 EST    1.85   2.15 -999 -999 -999  33.4  50.9 1029.3 -9.9 -9.999 -99.9 -99.99 -9.99
2019/11/13 17:24 EST    2.00   2.31 -999 -999 -999  33.3  50.9 1029.4 -9.9 -9.999 -99.9 -99.99 -9.99
2019/11/13 17:30 EST    2.16   2.45 -999 -999 -999  32.9  50.9 1029.0 -9.9 -9.999 -99.9 -99.99 -9.99
2019/11/13 17:36 EST    2.32   2.62 -999 -999 -999  32.9  50.9 1029.0 -9.9 -9.999 -99.9 -99.99 -9.99
2019/11/13 17:42 EST    2.48   2.78 -999 -999 -999  33.3  51.1 1029.1 -9.9 -9.999 -99.9 -99.99 -9.99
2019/11/13 17:48 EST    2.64   2.92 -999 -999 -999  33.3  51.1 1029.4 -9.9 -9.999 -99.9 -99.99 -9.99
2019/11/13 17:54 EST    2.79   3.03 -999 -999 -999  32.9  51.3 1029.7 -9.9 -9.999 -99.9 -99.99 -9.99
2019/11/13 18:00 EST    2.94   3.19 -999 -999 -999  32.7  51.4 1029.7 -9.9 -9.999 -99.9 -99.99 -9.99
2019/11/13 18:06 EST    3.09   3.32 -999 -999 -999  32.5  51.4 1029.7 -9.9 -9.999 -99.9 -99.99 -9.99
2019/11/13 18:12 EST    3.24   3.45 -999 -999 -999  32.9  51.4 1029.7 -9.9 -9.999 -99.9 -99.99 -9.99
2019/11/13 18:18 EST    3.38   3.58 -999 -999 -999  32.7  51.3 1029.8 -9.9 -9.999 -99.9 -99.99 -9.99
2019/11/13 18:24 EST    3.52   3.71 -999 -999 -999  33.1  51.3 1029.9 -9.9 -9.999 -99.9 -99.99 -9.99
2019/11/13 18:30 EST    3.65   3.83 -999 -999 -999  32.5  51.3 1030.0 -9.9 -9.999 -99.9 -99.99 -9.99
2019/11/13 18:36 EST    3.77   3.97 -999 -999 -999  32.5  51.4 1030.4 -9.9 -9.999 -99.9 -99.99 -9.99
2019/11/13 18:42 EST    3.89   4.07 -999 -999 -999  32.4  51.6 1030.5 -9.9 -9.999 -99.9 -99.99 -9.99
2019/11/13 18:48 EST    4.00   4.18 -999 -999 -999  32.7  51.6 1030.5 -9.9 -9.999 -99.9 -99.99 -9.99
2019/11/13 18:54 EST    4.11   4.26 -999 -999 -999  32.7  51.8 1030.6 -9.9 -9.999 -99.9 -99.99 -9.99
2019/11/13 19:00 EST    4.21   4.40 -999 -999 -999  32.5  51.8 1030.6 -9.9 -9.999 -99.9 -99.99 -9.99
2019/11/13 19:06 EST    4.30   4.48 -999 -999 -999  32.2  52.0 1030.6 -9.9 -9.999 -99.9 -99.99 -9.99
2019/11/13 19:12 EST    4.39   4.55 -999 -999 -999  32.0  52.2 1030.5 -9.9 -9.999 -99.9 -99.99 -9.99
2019/11/13 19:18 EST    4.47   4.64 -999 -999 -999  32.5  52.3 1030.5 -9.9 -9.999 -99.9 -99.99 -9.99
2019/11/13 19:24 EST    4.54   4.72 -999 -999 -999  32.5  52.3 1030.5 -9.9 -9.999 -99.9 -99.99 -9.99
2019/11/13 19:30 EST    4.61   4.79 -999 -999 -999  32.2  52.3 1030.5 -9.9 -9.999 -99.9 -99.99 -9.99
2019/11/13 19:36 EST    4.67   4.84 -999 -999 -999  31.8  52.3 1030.5 -9.9 -9.999 -99.9 -99.99 -9.99
2019/11/13 19:42 EST    4.72   4.88 -999 -999 -999  31.6  52.2 1030.4 -9.9 -9.999 -99.9 -99.99 -9.99
2019/11/13 19:48 EST    4.77   4.96 -999 -999 -999  31.5  52.0 1030.5 -9.9 -9.999 -99.9 -99.99 -9.99
2019/11/13 19:54 EST    4.81   4.99 -999 -999 -999  31.5  52.0 1030.6 -9.9 -9.999 -99.9 -99.99 -9.99
2019/11/13 20:00 EST    4.84   5.02 -999 -999 -999  31.5  51.8 1030.7 -9.9 -9.999 -99.9 -99.99 -9.99
2019/11/13 20:06 EST    4.87   5.08 -999 -999 -999  32.0  52.0 1030.7 -9.9 -9.999 -99.9 -99.99 -9.99
2019/11/13 20:12 EST    4.90   5.08 -999 -999 -999  31.5  52.0 1030.7 -9.9 -9.999 -99.9 -99.99 -9.99
2019/11/13 20:18 EST    4.92   5.11 -999 -999 -999  31.3  52.0 1030.7 -9.9 -9.999 -99.9 -99.99 -9.99
2019/11/13 20:24 EST    4.93   5.12 -999 -999 -999  31.3  52.0 1030.6 -9.9 -9.999 -99.9 -99.99 -9.99
2019/11/13 20:30 EST    4.94   5.13 -999 -999 -999  31.5  52.0 1030.5 -9.9 -9.999 -99.9 -99.99 -9.99
2019/11/13 20:36 EST    4.94   5.10 -999 -999 -999  31.5  52.0 1030.7 -9.9 -9.999 -99.9 -99.99 -9.99
2019/11/13 20:42 EST    4.94   5.10 -999 -999 -999  31.3  52.0 1030.7 -9.9 -9.999 -99.9 -99.99 -9.99
2019/11/13 20:48 EST    4.93   5.10 -999 -999 -999  31.1  51.8 1030.7 -9.9 -9.999 -99.9 -99.99 -9.99
2019/11/13 20:54 EST    4.92   5.10 -999 -999 -999  31.1  51.8 1030.9 -9.9 -9.999 -99.9 -99.99 -9.99
2019/11/13 21:00 EST    4.90   5.08 -999 -999 -999  31.1  51.8 1030.9 -9.9 -9.999 -99.9 -99.99 -9.99
2019/11/13 21:06 EST    4.88   5.03 -999 -999 -999  31.3  51.8 1030.8 -9.9 -9.999 -99.9 -99.99 -9.99
2019/11/13 21:12 EST    4.85   4.99 -999 -999 -999  31.3  51.8 1030.8 -9.9 -9.999 -99.9 -99.99 -9.99
2019/11/13 21:18 EST    4.82   4.95 -999 -999 -999  31.3  51.8 1030.6 -9.9 -9.999 -99.9 -99.99 -9.99
2019/11/13 21:24 EST    4.78   4.90 -999 -999 -999  31.1  51.8 1030.5 -9.9 -9.999 -99.9 -99.99 -9.99
2019/11/13 21:30 EST    4.74   4.85 -999 -999 -999  31.1  51.8 1030.5 -9.9 -9.999 -99.9 -99.99 -9.99
2019/11/13 21:36 EST    4.69   4.78 -999 -999 -999  30.9  52.0 1030.5 -9.9 -9.999 -99.9 -99.99 -9.99
2019/11/13 21:42 EST    4.64   4.72 -999 -999 -999  31.1  52.0 1030.7 -9.9 -9.999 -99.9 -99.99 -9.99
2019/11/13 21:48 EST    4.58   4.66 -999 -999 -999  30.9  52.0 1030.7 -9.9 -9.999 -99.9 -99.99 -9.99
2019/11/13 21:54 EST    4.52   4.59 -999 -999 -999  30.9  52.0 1031.0 -9.9 -9.999 -99.9 -99.99 -9.99
2019/11/13 22:00 EST    4.46   4.51 -999 -999 -999  31.1  51.8 1031.4 -9.9 -9.999 -99.9 -99.99 -9.99
2019/11/13 22:06 EST    4.39   4.44 -999 -999 -999  31.1  51.8 1031.4 -9.9 -9.999 -99.9 -99.99 -9.99
2019/11/13 22:12 EST    4.31   4.35 -999 -999 -999  31.5  51.8 1031.3 -9.9 -9.999 -99.9 -99.99 -9.99
2019/11/13 22:18 EST    4.23   4.26 -999 -999 -999  31.1  51.8 1031.4 -9.9 -9.999 -99.9 -99.99 -9.99
2019/11/13 22:24 EST    4.14   4.14 -999 -999 -999  30.9  51.8 1031.3 -9.9 -9.999 -99.9 -99.99 -9.99
2019/11/13 22:30 EST    4.05   4.06 -999 -999 -999  30.9  51.6 1031.3 -9.9 -9.999 -99.9 -99.99 -9.99
2019/11/13 22:36 EST    3.96   3.95 -999 -999 -999  30.9  51.6 1031.4 -9.9 -9.999 -99.9 -99.99 -9.99
2019/11/13 22:42 EST    3.86   3.85 -999 -999 -999  30.7  51.6 1031.5 -9.9 -9.999 -99.9 -99.99 -9.99
2019/11/13 22:48 EST    3.76   3.74 -999 -999 -999  30.9  51.6 1031.4 -9.9 -9.999 -99.9 -99.99 -9.99
2019/11/13 22:54 EST    3.65   3.63 -999 -999 -999  31.1  51.6 1031.4 -9.9 -9.999 -99.9 -99.99 -9.99
2019/11/13 23:00 EST    3.54   3.50 -999 -999 -999  30.9  51.6 1031.3 -9.9 -9.999 -99.9 -99.99 -9.99
2019/11/13 23:06 EST    3.43   3.38 -999 -999 -999  30.7  51.4 1031.3 -9.9 -9.999 -99.9 -99.99 -9.99
2019/11/13 23:12 EST    3.31   3.25 -999 -999 -999  30.7  51.4 1031.4 -9.9 -9.999 -99.9 -99.99 -9.99
2019/11/13 23:18 EST    3.19   3.13 -999 -999 -999  30.7  51.4 1031.5 -9.9 -9.999 -99.9 -99.99 -9.99
2019/11/13 23:24 EST    3.07   2.99 -999 -999 -999  30.6  51.4 1031.4 -9.9 -9.999 -99.9 -99.99 -9.99
2019/11/13 23:30 EST    2.95   2.84 -999 -999 -999  30.6  51.4 1031.4 -9.9 -9.999 -99.9 -99.99 -9.99
2019/11/13 23:36 EST    2.83   2.69 -999 -999 -999  30.6  51.4 1031.2 -9.9 -9.999 -99.9 -99.99 -9.99
2019/11/13 23:42 EST    2.71   2.57 -999 -999 -999  30.2  51.3 1031.1 -9.9 -9.999 -99.9 -99.99 -9.99
2019/11/13 23:48 EST    2.58   2.44 -999 -999 -999  29.8  51.3 1031.4 -9.9 -9.999 -99.9 -99.99 -9.99
2019/11/13 23:54 EST    2.46   2.32 -999 -999 -999  29.7  51.3 1031.6 -9.9 -9.999 -99.9 -99.99 -9.99
2019/11/14 00:00 EST    2.34   2.17 -999 -999 -999  29.7  51.3 1031.5 -9.9 -9.999 -99.9 -99.99 -9.99
2019/11/14 00:06 EST    2.22   2.06 -999 -999 -999  29.8  51.3 1031.2 -9.9 -9.999 -99.9 -99.99 -9.99
2019/11/14 00:12 EST    2.10   1.95 -999 -999 -999  30.2  51.1 1031.2 -9.9 -9.999 -99.9 -99.99 -9.99
2019/11/14 00:18 EST    1.98   1.84 -999 -999 -999  30.2  51.1 1031.2 -9.9 -9.999 -99.9 -99.99 -9.99
2019/11/14 00:24 EST    1.86   1.74 -999 -999 -999  30.2  51.1 1031.1 -9.9 -9.999 -99.9 -99.99 -9.99
2019/11/14 00:30 EST    1.74   1.65 -999 -999 -999  30.4  50.9 1031.3 -9.9 -9.999 -99.9 -99.99 -9.99
2019/11/14 00:36 EST    1.63   1.57 -999 -999 -999  30.4  50.9 1031.5 -9.9 -9.999 -99.9 -99.99 -9.99
2019/11/14 00:42 EST    1.52   1.49 -999 -999 -999  30.7  50.9 1031.4 -9.9 -9.999 -99.9 -99.99 -9.99
2019/11/14 00:48 EST    1.41   1.41 -999 -999 -999  30.6  50.9 1031.4 -9.9 -9.999 -99.9 -99.99 -9.99
2019/11/14 00:54 EST    1.31   1.37 -999 -999 -999  29.8  50.9 1031.1 -9.9 -9.999 -99.9 -99.99 -9.99
2019/11/14 01:00 EST    1.21   1.32 -999 -999 -999  29.3  50.7 1031.3 -9.9 -9.999 -99.9 -99.99 -9.99
2019/11/14 01:06 EST    1.11   1.27 -999 -999 -999  29.5  50.7 1031.3 -9.9 -9.999 -99.9 -99.99 -9.99
2019/11/14 01:12 EST    1.02   1.20 -999 -999 -999  29.3  50.7 1031.3 -9.9 -9.999 -99.9 -99.99 -9.99
2019/11/14 01:18 EST    0.93   1.13 -999 -999 -999  28.9  50.7 1031.2 -9.9 -9.999 -99.9 -99.99 -9.99
2019/11/14 01:24 EST    0.84   1.09 -999 -999 -999  29.1  50.5 1031.3 -9.9 -9.999 -99.9 -99.99 -9.99
2019/11/14 01:30 EST    0.76   1.06 -999 -999 -999  29.1  50.5 1031.2 -9.9 -9.999 -99.9 -99.99 -9.99
2019/11/14 01:36 EST    0.68   0.98 -999 -999 -999  29.1  50.5 1031.2 -9.9 -9.999 -99.9 -99.99 -9.99
2019/11/14 01:42 EST    0.60   0.95 -999 -999 -999  29.1  50.5 1031.2 -9.9 -9.999 -99.9 -99.99 -9.99
2019/11/14 01:48 EST    0.53   0.90 -999 -999 -999  28.9  50.5 1031.3 -9.9 -9.999 -99.9 -99.99 -9.99
2019/11/14 01:54 EST    0.46   0.86 -999 -999 -999  29.1  50.5 1031.3 -9.9 -9.999 -99.9 -99.99 -9.99
2019/11/14 02:00 EST    0.40   0.82 -999 -999 -999  29.1  50.5 1031.3 -9.9 -9.999 -99.9 -99.99 -9.99
2019/11/14 02:06 EST    0.35   0.76 -999 -999 -999  29.1  50.5 1031.2 -9.9 -9.999 -99.9 -99.99 -9.99
2019/11/14 02:12 EST    0.29   0.71 -999 -999 -999  29.1  50.4 1031.1 -9.9 -9.999 -99.9 -99.99 -9.99
2019/11/14 02:18 EST    0.24   0.65 -999 -999 -999  29.5  50.4 1031.0 -9.9 -9.999 -99.9 -99.99 -9.99
2019/11/14 02:24 EST    0.20   0.62 -999 -999 -999  29.3  50.4 1031.0 -9.9 -9.999 -99.9 -99.99 -9.99
2019/11/14 02:30 EST    0.16   0.57 -999 -999 -999  29.3  50.4 1031.0 -9.9 -9.999 -99.9 -99.99 -9.99
2019/11/14 02:36 EST    0.13   0.54 -999 -999 -999  29.3  50.4 1031.0 -9.9 -9.999 -99.9 -99.99 -9.99
2019/11/14 02:42 EST    0.10   0.48 -999 -999 -999  29.5  50.4 1030.9 -9.9 -9.999 -99.9 -99.99 -9.99
2019/11/14 02:48 EST    0.08   0.46 -999 -999 -999  28.9  50.4 1030.7 -9.9 -9.999 -99.9 -99.99 -9.99
2019/11/14 02:54 EST    0.07   0.45 -999 -999 -999  28.8  50.4 1030.8 -9.9 -9.999 -99.9 -99.99 -9.99
2019/11/14 03:00 EST    0.06   0.45 -999 -999 -999  29.8  50.4 1030.8 -9.9 -9.999 -99.9 -99.99 -9.99
2019/11/14 03:06 EST    0.06   0.41 -999 -999 -999  30.0  50.4 1030.9 -9.9 -9.999 -99.9 -99.99 -9.99
2019/11/14 03:12 EST    0.07   0.40 -999 -999 -999  28.9  50.4 1031.0 -9.9 -9.999 -99.9 -99.99 -9.99
2019/11/14 03:18 EST    0.08   0.44 -999 -999 -999  28.8  50.4 1031.0 -9.9 -9.999 -99.9 -99.99 -9.99
2019/11/14 03:24 EST    0.11   0.41 -999 -999 -999  28.6  50.4 1030.9 -9.9 -9.999 -99.9 -99.99 -9.99
2019/11/14 03:30 EST    0.14   0.51 -999 -999 -999  28.2  50.4 1030.6 -9.9 -9.999 -99.9 -99.99 -9.99
2019/11/14 03:36 EST    0.18   0.57 -999 -999 -999  28.2  50.4 1030.4 -9.9 -9.999 -99.9 -99.99 -9.99
2019/11/14 03:42 EST    0.22   0.63 -999 -999 -999  28.2  50.5 1030.5 -9.9 -9.999 -99.9 -99.99 -9.99
2019/11/14 03:48 EST    0.28   0.72 -999 -999 -999  30.6  50.5 1030.7 -9.9 -9.999 -99.9 -99.99 -9.99
2019/11/14 03:54 EST    0.35   0.84 -999 -999 -999  29.5  50.5 1030.5 -9.9 -9.999 -99.9 -99.99 -9.99
2019/11/14 04:00 EST    0.42   0.94 -999 -999 -999  28.9  50.5 1030.8 -9.9 -9.999 -99.9 -99.99 -9.99
2019/11/14 04:06 EST    0.50   1.02 -999 -999 -999  28.8  50.5 1030.7 -9.9 -9.999 -99.9 -99.99 -9.99
2019/11/14 04:12 EST    0.60   1.15 -999 -999 -999  28.8  50.5 1030.7 -9.9 -9.999 -99.9 -99.99 -9.99
2019/11/14 04:18 EST    0.70   1.32 -999 -999 -999  29.1  50.7 1030.7 -9.9 -9.999 -99.9 -99.99 -9.99
2019/11/14 04:24 EST    0.81   1.45 -999 -999 -999  28.6  50.7 1030.5 -9.9 -9.999 -99.9 -99.99 -9.99
2019/11/14 04:30 EST    0.93   1.59 -999 -999 -999  28.8  50.7 1030.5 -9.9 -9.999 -99.9 -99.99 -9.99
2019/11/14 04:36 EST    1.05   1.80 -999 -999 -999  28.6  50.9 1030.6 -9.9 -9.999 -99.9 -99.99 -9.99
2019/11/14 04:42 EST    1.19   1.98 -999 -999 -999  28.6  50.7 1030.5 -9.9 -9.999 -99.9 -99.99 -9.99
2019/11/14 04:48 EST    1.33   2.17 -999 -999 -999  28.9  50.7 1030.6 -9.9 -9.999 -99.9 -99.99 -9.99
2019/11/14 04:54 EST    1.48   2.33 -999 -999 -999  28.8  50.7 1030.6 -9.9 -9.999 -99.9 -99.99 -9.99
2019/11/14 05:00 EST    1.64   2.53 -999 -999 -999  28.8  50.9 1030.5 -9.9 -9.999 -99.9 -99.99 -9.99
2019/11/14 05:06 EST    1.80   2.70 -999 -999 -999  28.8  50.9 1030.5 -9.9 -9.999 -99.9 -99.99 -9.99
2019/11/14 05:12 EST    1.96   2.88 -999 -999 -999  28.4  50.9 1030.5 -9.9 -9.999 -99.9 -99.99 -9.99
2019/11/14 05:18 EST    2.13   3.07 -999 -999 -999  28.4  51.1 1030.4 -9.9 -9.999 -99.9 -99.99 -9.99
2019/11/14 05:24 EST    2.31   3.27 -999 -999 -999  28.4  51.3 1030.3 -9.9 -9.999 -99.9 -99.99 -9.99
2019/11/14 05:30 EST    2.49   3.45 -999 -999 -999  28.4  51.3 1030.5 -9.9 -9.999 -99.9 -99.99 -9.99
2019/11/14 05:36 EST    2.67   3.62 -999 -999 -999  28.4  51.4 1030.5 -9.9 -9.999 -99.9 -99.99 -9.99
2019/11/14 05:42 EST    2.85   3.81 -999 -999 -999  28.4  51.4 1030.5 -9.9 -9.999 -99.9 -99.99 -9.99
2019/11/14 05:48 EST    3.03   3.98 -999 -999 -999  28.6  51.6 1030.7 -9.9 -9.999 -99.9 -99.99 -9.99
2019/11/14 05:54 EST    3.21   4.15 -999 -999 -999  28.8  51.6 1030.7 -9.9 -9.999 -99.9 -99.99 -9.99
2019/11/14 06:00 EST    3.39   4.30 -999 -999 -999  29.1  51.6 1030.7 -9.9 -9.999 -99.9 -99.99 -9.99
2019/11/14 06:06 EST    3.56   4.44 -999 -999 -999  29.3  51.6 1030.9 -9.9 -9.999 -99.9 -99.99 -9.99
2019/11/14 06:12 EST    3.74   4.58 -999 -999 -999  29.1  51.6 1030.8 -9.9 -9.999 -99.9 -99.99 -9.99
2019/11/14 06:18 EST    3.91   4.71 -999 -999 -999  28.9  51.6 1030.8 -9.9 -9.999 -99.9 -99.99 -9.99
2019/11/14 06:24 EST    4.07   4.83 -999 -999 -999  28.9  51.8 1030.9 -9.9 -9.999 -99.9 -99.99 -9.99
2019/11/14 06:30 EST    4.23   4.95 -999 -999 -999  29.1  51.8 1030.9 -9.9 -9.999 -99.9 -99.99 -9.99
2019/11/14 06:36 EST    4.39   5.05 -999 -999 -999  28.9  51.8 1030.9 -9.9 -9.999 -99.9 -99.99 -9.99
2019/11/14 06:42 EST    4.53   5.16 -999 -999 -999  29.3  52.0 1030.8 -9.9 -9.999 -99.9 -99.99 -9.99
2019/11/14 06:48 EST    4.68   5.24 -999 -999 -999  28.9  52.0 1031.0 -9.9 -9.999 -99.9 -99.99 -9.99
2019/11/14 06:54 EST    4.81   5.33 -999 -999 -999  28.6  52.2 1031.1 -9.9 -9.999 -99.9 -99.99 -9.99
2019/11/14 07:00 EST    4.94   5.39 -999 -999 -999  28.8  52.2 1031.2 -9.9 -9.999 -99.9 -99.99 -9.99
2019/11/14 07:06 EST    5.05   5.47 -999 -999 -999  28.9  52.3 1031.3 -9.9 -9.999 -99.9 -99.99 -9.99
2019/11/14 07:12 EST    5.16   5.52 -999 -999 -999  29.7  52.3 1031.3 -9.9 -9.999 -99.9 -99.99 -9.99
2019/11/14 07:18 EST    5.26   5.55 -999 -999 -999  30.2  52.3 1031.3 -9.9 -9.999 -99.9 -99.99 -9.99
2019/11/14 07:24 EST    5.36   5.63 -999 -999 -999  30.4  52.3 1031.3 -9.9 -9.999 -99.9 -99.99 -9.99
2019/11/14 07:30 EST    5.44   5.68 -999 -999 -999  30.6  52.3 1031.3 -9.9 -9.999 -99.9 -99.99 -9.99
2019/11/14 07:36 EST    5.52   5.72 -999 -999 -999  31.1  52.5 1031.4 -9.9 -9.999 -99.9 -99.99 -9.99
2019/11/14 07:42 EST    5.59   5.74 -999 -999 -999  30.7  52.5 1031.4 -9.9 -9.999 -99.9 -99.99 -9.99
2019/11/14 07:48 EST    5.65   5.76 -999 -999 -999  31.1  52.2 1031.5 -9.9 -9.999 -99.9 -99.99 -9.99
2019/11/14 07:54 EST    5.70   5.79 -999 -999 -999  31.5  52.2 1031.5 -9.9 -9.999 -99.9 -99.99 -9.99
2019/11/14 08:00 EST    5.74   5.82 -999 -999 -999  31.5  52.0 1031.5 -9.9 -9.999 -99.9 -99.99 -9.99
2019/11/14 08:06 EST    5.78   5.86 -999 -999 -999  31.6  52.0 1031.6 -9.9 -9.999 -99.9 -99.99 -9.99
2019/11/14 08:12 EST    5.81   5.88 -999 -999 -999  32.2  52.0 1031.6 -9.9 -9.999 -99.9 -99.99 -9.99
2019/11/14 08:18 EST    5.83   5.88 -999 -999 -999  32.9  51.8 1031.6 -9.9 -9.999 -99.9 -99.99 -9.99
2019/11/14 08:24 EST    5.84   5.93 -999 -999 -999  33.3  51.8 1031.5 -9.9 -9.999 -99.9 -99.99 -9.99
2019/11/14 08:30 EST    5.85   5.96 -999 -999 -999  33.4  51.6 1031.5 -9.9 -9.999 -99.9 -99.99 -9.99
2019/11/14 08:36 EST    5.86   5.97 -999 -999 -999  34.0  51.6 1031.6 -9.9 -9.999 -99.9 -99.99 -9.99
2019/11/14 08:42 EST    5.85   5.97 -999 -999 -999  34.0  51.6 1031.6 -9.9 -9.999 -99.9 -99.99 -9.99
2019/11/14 08:48 EST    5.85   5.98 -999 -999 -999  34.0  51.6 1031.7 -9.9 -9.999 -99.9 -99.99 -9.99
2019/11/14 08:54 EST    5.83   6.00 -999 -999 -999  34.3  51.6 1031.7 -9.9 -9.999 -99.9 -99.99 -9.99
2019/11/14 09:00 EST    5.81   6.01 -999 -999 -999  34.3  51.6 1031.7 -9.9 -9.999 -99.9 -99.99 -9.99
2019/11/14 09:06 EST    5.79   6.02 -999 -999 -999  34.7  51.6 1031.6 -9.9 -9.999 -99.9 -99.99 -9.99
2019/11/14 09:12 EST    5.76   6.02 -999 -999 -999  34.5  51.6 1031.5 -9.9 -9.999 -99.9 -99.99 -9.99
2019/11/14 09:18 EST    5.73   6.02 -999 -999 -999  34.7  51.6 1031.4 -9.9 -9.999 -99.9 -99.99 -9.99
2019/11/14 09:24 EST    5.69   6.01 -999 -999 -999  35.1  51.6 1031.4 -9.9 -9.999 -99.9 -99.99 -9.99
2019/11/14 09:30 EST    5.65   5.99 -999 -999 -999  35.4  51.6 1031.4 -9.9 -9.999 -99.9 -99.99 -9.99
2019/11/14 09:36 EST    5.60   5.96 -999 -999 -999  35.2  51.6 1031.3 -9.9 -9.999 -99.9 -99.99 -9.99
2019/11/14 09:42 EST    5.55   5.90 -999 -999 -999  35.6  51.4 1031.2 -9.9 -9.999 -99.9 -99.99 -9.99
2019/11/14 09:48 EST    5.50   5.87 -999 -999 -999  35.2  51.4 1031.2 -9.9 -9.999 -99.9 -99.99 -9.99
2019/11/14 09:54 EST    5.44   5.81 -999 -999 -999  35.4  51.4 1031.3 -9.9 -9.999 -99.9 -99.99 -9.99
2019/11/14 10:00 EST    5.37   5.74 -999 -999 -999  36.3  51.6 1031.3 -9.9 -9.999 -99.9 -99.99 -9.99
2019/11/14 10:06 EST    5.30   5.67 -999 -999 -999  36.7  51.6 1031.2 -9.9 -9.999 -99.9 -99.99 -9.99
2019/11/14 10:12 EST    5.23   5.59 -999 -999 -999  37.0  51.6 1031.2 -9.9 -9.999 -99.9 -99.99 -9.99
2019/11/14 10:18 EST    5.16   5.50 -999 -999 -999  36.7  51.6 1031.2 -9.9 -9.999 -99.9 -99.99 -9.99
2019/11/14 10:24 EST    5.08   5.36 -999 -999 -999  37.0  51.6 1031.1 -9.9 -9.999 -99.9 -99.99 -9.99
2019/11/14 10:30 EST    4.99   5.26 -999 -999 -999  37.2  51.6 1031.0 -9.9 -9.999 -99.9 -99.99 -9.99
2019/11/14 10:36 EST    4.90   5.13 -999 -999 -999  37.2  51.6 1030.9 -9.9 -9.999 -99.9 -99.99 -9.99
2019/11/14 10:42 EST    4.81   5.01 -999 -999 -999  37.8  51.6 1030.8 -9.9 -9.999 -99.9 -99.99 -9.99
2019/11/14 10:48 EST    4.71   4.88 -999 -999 -999  37.9  51.6 1030.7 -9.9 -9.999 -99.9 -99.99 -9.99
2019/11/14 10:54 EST    4.61   4.75 -999 -999 -999  38.7  51.6 1030.5 -9.9 -9.999 -99.9 -99.99 -9.99
2019/11/14 11:00 EST    4.51   4.61 -999 -999 -999  38.7  51.6 1030.3 -9.9 -9.999 -99.9 -99.99 -9.99
2019/11/14 11:06 EST    4.40   4.50 -999 -999 -999  39.0  51.6 1030.2 -9.9 -9.999 -99.9 -99.99 -9.99
2019/11/14 11:12 EST    4.29   4.36 -999 -999 -999  38.7  51.6 1030.1 -9.9 -9.999 -99.9 -99.99 -9.99
2019/11/14 11:18 EST    4.18   4.22 -999 -999 -999  39.7  51.6 1030.0 -9.9 -9.999 -99.9 -99.99 -9.99
2019/11/14 11:24 EST    4.06   4.06 -999 -999 -999  39.6  51.6 1029.8 -9.9 -9.999 -99.9 -99.99 -9.99
2019/11/14 11:30 EST    3.94   3.92 -999 -999 -999  40.3  51.6 1029.8 -9.9 -9.999 -99.9 -99.99 -9.99
2019/11/14 11:36 EST    3.82   3.79 -999 -999 -999  40.1  51.6 1029.7 -9.9 -9.999 -99.9 -99.99 -9.99
2019/11/14 11:42 EST    3.70   3.64 -999 -999 -999  41.2  51.6 1029.5 -9.9 -9.999 -99.9 -99.99 -9.99
2019/11/14 11:48 EST    3.57   3.51 -999 -999 -999  40.5  51.6 1029.5 -9.9 -9.999 -99.9 -99.99 -9.99
2019/11/14 11:54 EST    3.44   3.37 -999 -999 -999  41.2  51.6 1029.2 -9.9 -9.999 -99.9 -99.99 -9.99
2019/11/14 12:00 EST    3.32   3.21 -999 -999 -999  41.4  51.6 1029.2 -9.9 -9.999 -99.9 -99.99 -9.99
2019/11/14 12:06 EST    3.19   3.02 -999 -999 -999  41.9  51.6 1029.0 -9.9 -9.999 -99.9 -99.99 -9.99
2019/11/14 12:12 EST    3.06   2.90 -999 -999 -999  41.9  51.6 1029.0 -9.9 -9.999 -99.9 -99.99 -9.99
2019/11/14 12:18 EST    2.93   2.73 -999 -999 -999  41.9  51.6 1028.9 -9.9 -9.999 -99.9 -99.99 -9.99
2019/11/14 12:24 EST    2.80   2.57 -999 -999 -999  42.1  51.6 1028.8 -9.9 -9.999 -99.9 -99.99 -9.99
2019/11/14 12:30 EST    2.67   2.43 -999 -999 -999  42.4  51.6 1028.7 -9.9 -9.999 -99.9 -99.99 -9.99
2019/11/14 12:36 EST    2.54   2.30 -999 -999 -999  42.8  51.6 1028.5 -9.9 -9.999 -99.9 -99.99 -9.99
2019/11/14 12:42 EST    2.42   2.18 -999 -999 -999  42.8  51.6 1028.5 -9.9 -9.999 -99.9 -99.99 -9.99
2019/11/14 12:48 EST    2.29   2.05 -999 -999 -999  43.3  51.6 1028.4 -9.9 -9.999 -99.9 -99.99 -9.99
2019/11/14 12:54 EST    2.17   1.93 -999 -999 -999  44.4  51.6 1028.3 -9.9 -9.999 -99.9 -99.99 -9.99
2019/11/14 13:00 EST    2.05   1.80 -999 -999 -999  43.9  51.6 1028.2 -9.9 -9.999 -99.9 -99.99 -9.99
2019/11/14 13:06 EST    1.93   1.69 -999 -999 -999  44.6  51.6 1028.2 -9.9 -9.999 -99.9 -99.99 -9.99
2019/11/14 13:12 EST    1.81   1.59 -999 -999 -999  44.6  51.6 1028.0 -9.9 -9.999 -99.9 -99.99 -9.99
2019/11/14 13:18 EST    1.70   1.49 -999 -999 -999  44.2  51.6 1027.9 -9.9 -9.999 -99.9 -99.99 -9.99
2019/11/14 13:24 EST    1.59   1.39 -999 -999 -999  43.9  51.8 1027.9 -9.9 -9.999 -99.9 -99.99 -9.99
2019/11/14 13:30 EST    1.48   1.28 -999 -999 -999  44.1  51.8 1027.8 -9.9 -9.999 -99.9 -99.99 -9.99
2019/11/14 13:36 EST    1.37   1.23 -999 -999 -999  44.8  51.8 1027.7 -9.9 -9.999 -99.9 -99.99 -9.99
2019/11/14 13:42 EST    1.27   1.16 -999 -999 -999  45.0  51.8 1027.7 -9.9 -9.999 -99.9 -99.99 -9.99
2019/11/14 13:48 EST    1.17   1.09 -999 -999 -999  44.4  51.8 1027.6 -9.9 -9.999 -99.9 -99.99 -9.99
2019/11/14 13:54 EST    1.07   1.02 -999 -999 -999  44.6  51.8 1027.5 -9.9 -9.999 -99.9 -99.99 -9.99
2019/11/14 14:00 EST    0.97   0.95 -999 -999 -999  44.6  51.8 1027.4 -9.9 -9.999 -99.9 -99.99 -9.99
2019/11/14 14:06 EST    0.88   0.88 -999 -999 -999  44.4  51.8 1027.5 -9.9 -9.999 -99.9 -99.99 -9.99
2019/11/14 14:12 EST    0.79   0.83 -999 -999 -999  44.6  51.8 1027.3 -9.9 -9.999 -99.9 -99.99 -9.99
2019/11/14 14:18 EST    0.71   0.76 -999 -999 -999  44.8  51.8 1027.2 -9.9 -9.999 -99.9 -99.99 -9.99
2019/11/14 14:24 EST    0.63   0.70 -999 -999 -999  45.0  51.8 1027.2 -9.9 -9.999 -99.9 -99.99 -9.99
2019/11/14 14:30 EST    0.55   0.64 -999 -999 -999  45.0  51.8 1027.1 -9.9 -9.999 -99.9 -99.99 -9.99
2019/11/14 14:36 EST    0.47   0.59 -999 -999 -999  45.3  51.8 1027.0 -9.9 -9.999 -99.9 -99.99 -9.99
2019/11/14 14:42 EST    0.40   0.55 -999 -999 -999  45.7  51.8 1026.9 -9.9 -9.999 -99.9 -99.99 -9.99
2019/11/14 14:48 EST    0.34   0.48 -999 -999 -999  45.3  51.8 1027.0 -9.9 -9.999 -99.9 -99.99 -9.99
2019/11/14 14:54 EST    0.28   0.45 -999 -999 -999  45.5  51.8 1027.1 -9.9 -9.999 -99.9 -99.99 -9.99
2019/11/14 15:00 EST    0.22   0.40 -999 -999 -999  45.3  52.0 1027.0 -9.9 -9.999 -99.9 -99.99 -9.99
2019/11/14 15:06 EST    0.17   0.35 -999 -999 -999  45.3  52.0 1027.0 -9.9 -9.999 -99.9 -99.99 -9.99
2019/11/14 15:12 EST    0.12   0.31 -999 -999 -999  45.1  52.0 1027.0 -9.9 -9.999 -99.9 -99.99 -9.99
2019/11/14 15:18 EST    0.08   0.26 -999 -999 -999  45.0  52.0 1027.1 -9.9 -9.999 -99.9 -99.99 -9.99
2019/11/14 15:24 EST    0.05   0.23 -999 -999 -999  44.8  52.0 1027.1 -9.9 -9.999 -99.9 -99.99 -9.99
2019/11/14 15:30 EST    0.02   0.22 -999 -999 -999  44.8  52.0 1027.1 -9.9 -9.999 -99.9 -99.99 -9.99
2019/11/14 15:36 EST   -0.00   0.20 -999 -999 -999  44.8  52.0 1027.1 -9.9 -9.999 -99.9 -99.99 -9.99
2019/11/14 15:42 EST   -0.02   0.20 -999 -999 -999  44.6  52.0 1027.0 -9.9 -9.999 -99.9 -99.99 -9.99
2019/11/14 15:48 EST   -0.03   0.21 -999 -999 -999  44.6  52.0 1027.0 -9.9 -9.999 -99.9 -99.99 -9.99
2019/11/14 15:54 EST   -0.03   0.23 -999 -999 -999  44.4  52.0 1026.9 -9.9 -9.999 -99.9 -99.99 -9.99
2019/11/14 16:00 EST   -0.02   0.27 -999 -999 -999  44.4  52.0 1027.1 -9.9 -9.999 -99.9 -99.99 -9.99
2019/11/14 16:06 EST   -0.00   0.28 -999 -999 -999  44.1  51.8 1027.0 -9.9 -9.999 -99.9 -99.99 -9.99
2019/11/14 16:12 EST    0.02   0.34 -999 -999 -999  44.1  51.8 1027.0 -9.9 -9.999 -99.9 -99.99 -9.99
2019/11/14 16:18 EST    0.06   0.37 -999 -999 -999  43.9  51.8 1026.9 -9.9 -9.999 -99.9 -99.99 -9.99
2019/11/14 16:24 EST    0.10   0.46 -999 -999 -999  43.9  51.8 1026.9 -9.9 -9.999 -99.9 -99.99 -9.99
2019/11/14 16:30 EST    0.15 -99.99 -999 -999 -999 -99.9 -99.9 -999.9 -9.9 -9.999 -99.9 -99.99 -9.99